﻿<?xml version="1.0" encoding="UTF-8" standalone="no"?>
<gpx xmlns="http://www.topografix.com/GPX/1/1" xmlns:gpxtpx="http://www.garmin.com/xmlschemas/TrackPointExtension/v1" xmlns:xsi="http://www.w3.org/2001/XMLSchema-instance" creator="Hribi.net" version="1.1" xsi:schemaLocation="http://www.topografix.com/GPX/1/1 http://www.topografix.com/GPX/1/1/gpx.xsd http://www.garmin.com/xmlschemas/TrackPointExtension/v1 http://www.garmin.com/xmlschemas/TrackPointExtensionv1.xsd">
  <metadata>
    <name>GPS sled</name>
    <desc>www.hribi.net</desc>
    <author>
      <name>hribi.net</name>
    </author>
    <link href="http://www.hribi.net">
      <text>Hribi.net</text>
    </link>
  </metadata>
  <trk>
    <trkseg>
      <trkpt lat="46.289832" lon="13.802590">
        <ele>658.6319909376</ele>
        <time>2011-02-05T08:32:34Z</time>
      </trkpt>
      <trkpt lat="46.289832" lon="13.802590">
        <ele>662.0019499584</ele>
        <time>2011-02-05T08:32:35Z</time>
      </trkpt>
      <trkpt lat="46.289832" lon="13.802590">
        <ele>660.0719734272</ele>
        <time>2011-02-05T08:32:37Z</time>
      </trkpt>
      <trkpt lat="46.289832" lon="13.802590">
        <ele>659.591979264</ele>
        <time>2011-02-05T08:32:38Z</time>
      </trkpt>
      <trkpt lat="46.289832" lon="13.802590">
        <ele>659.591979264</ele>
        <time>2011-02-05T08:32:46Z</time>
      </trkpt>
      <trkpt lat="46.289832" lon="13.802590">
        <ele>661.0319617536</ele>
        <time>2011-02-05T08:32:46Z</time>
      </trkpt>
      <trkpt lat="46.289832" lon="13.802590">
        <ele>656.7120142848</ele>
        <time>2011-02-05T08:32:47Z</time>
      </trkpt>
      <trkpt lat="46.289832" lon="13.802590">
        <ele>662.9619382848</ele>
        <time>2011-02-05T08:32:49Z</time>
      </trkpt>
      <trkpt lat="46.289833" lon="13.802590">
        <ele>659.591979264</ele>
        <time>2011-02-05T08:32:50Z</time>
      </trkpt>
      <trkpt lat="46.289832" lon="13.802590">
        <ele>658.6319909376</ele>
        <time>2011-02-05T08:32:54Z</time>
      </trkpt>
      <trkpt lat="46.289833" lon="13.802589">
        <ele>660.5519675904</ele>
        <time>2011-02-05T08:32:54Z</time>
      </trkpt>
      <trkpt lat="46.289832" lon="13.802590">
        <ele>662.4819441216</ele>
        <time>2011-02-05T08:32:56Z</time>
      </trkpt>
      <trkpt lat="46.289832" lon="13.802590">
        <ele>659.1119851008</ele>
        <time>2011-02-05T08:32:57Z</time>
      </trkpt>
      <trkpt lat="46.289842" lon="13.802591">
        <ele>661.5119559168</ele>
        <time>2011-02-05T08:33:13Z</time>
      </trkpt>
      <trkpt lat="46.289842" lon="13.802591">
        <ele>660.0719734272</ele>
        <time>2011-02-05T08:33:14Z</time>
      </trkpt>
      <trkpt lat="46.289841" lon="13.802598">
        <ele>660.0719734272</ele>
        <time>2011-02-05T08:33:32Z</time>
      </trkpt>
      <trkpt lat="46.289837" lon="13.802597">
        <ele>660.0719734272</ele>
        <time>2011-02-05T08:33:52Z</time>
      </trkpt>
      <trkpt lat="46.289855" lon="13.802569">
        <ele>659.591979264</ele>
        <time>2011-02-05T08:34:04Z</time>
      </trkpt>
      <trkpt lat="46.289854" lon="13.802567">
        <ele>660.0719734272</ele>
        <time>2011-02-05T08:34:08Z</time>
      </trkpt>
      <trkpt lat="46.289858" lon="13.802576">
        <ele>659.591979264</ele>
        <time>2011-02-05T08:34:10Z</time>
      </trkpt>
      <trkpt lat="46.289869" lon="13.802585">
        <ele>660.0719734272</ele>
        <time>2011-02-05T08:34:11Z</time>
      </trkpt>
      <trkpt lat="46.289871" lon="13.802613">
        <ele>660.0719734272</ele>
        <time>2011-02-05T08:34:22Z</time>
      </trkpt>
      <trkpt lat="46.289871" lon="13.802612">
        <ele>660.0719734272</ele>
        <time>2011-02-05T08:34:48Z</time>
      </trkpt>
      <trkpt lat="46.289870" lon="13.802610">
        <ele>660.0719734272</ele>
        <time>2011-02-05T08:35:12Z</time>
      </trkpt>
      <trkpt lat="46.289876" lon="13.802609">
        <ele>659.1119851008</ele>
        <time>2011-02-05T08:35:32Z</time>
      </trkpt>
      <trkpt lat="46.289875" lon="13.802606">
        <ele>661.0319617536</ele>
        <time>2011-02-05T08:35:40Z</time>
      </trkpt>
      <trkpt lat="46.289875" lon="13.802606">
        <ele>657.6720026112</ele>
        <time>2011-02-05T08:35:43Z</time>
      </trkpt>
      <trkpt lat="46.289875" lon="13.802605">
        <ele>660.0719734272</ele>
        <time>2011-02-05T08:35:43Z</time>
      </trkpt>
      <trkpt lat="46.289875" lon="13.802606">
        <ele>658.1519967744</ele>
        <time>2011-02-05T08:35:46Z</time>
      </trkpt>
      <trkpt lat="46.289876" lon="13.802606">
        <ele>659.591979264</ele>
        <time>2011-02-05T08:35:47Z</time>
      </trkpt>
      <trkpt lat="46.289875" lon="13.802606">
        <ele>658.1519967744</ele>
        <time>2011-02-05T08:35:47Z</time>
      </trkpt>
      <trkpt lat="46.289875" lon="13.802606">
        <ele>659.591979264</ele>
        <time>2011-02-05T08:35:48Z</time>
      </trkpt>
      <trkpt lat="46.289875" lon="13.802606">
        <ele>654.792037632</ele>
        <time>2011-02-05T08:35:51Z</time>
      </trkpt>
      <trkpt lat="46.289875" lon="13.802605">
        <ele>659.591979264</ele>
        <time>2011-02-05T08:35:51Z</time>
      </trkpt>
      <trkpt lat="46.289876" lon="13.802606">
        <ele>659.591979264</ele>
        <time>2011-02-05T08:35:58Z</time>
      </trkpt>
      <trkpt lat="46.289881" lon="13.802577">
        <ele>655.2720317952</ele>
        <time>2011-02-05T08:36:00Z</time>
      </trkpt>
      <trkpt lat="46.289881" lon="13.802573">
        <ele>661.5119559168</ele>
        <time>2011-02-05T08:36:02Z</time>
      </trkpt>
      <trkpt lat="46.289875" lon="13.802547">
        <ele>658.1519967744</ele>
        <time>2011-02-05T08:36:03Z</time>
      </trkpt>
      <trkpt lat="46.289882" lon="13.802454">
        <ele>659.591979264</ele>
        <time>2011-02-05T08:36:10Z</time>
      </trkpt>
      <trkpt lat="46.289870" lon="13.802383">
        <ele>659.591979264</ele>
        <time>2011-02-05T08:36:14Z</time>
      </trkpt>
      <trkpt lat="46.289880" lon="13.802289">
        <ele>660.0719734272</ele>
        <time>2011-02-05T08:36:18Z</time>
      </trkpt>
      <trkpt lat="46.289884" lon="13.802238">
        <ele>659.1119851008</ele>
        <time>2011-02-05T08:36:22Z</time>
      </trkpt>
      <trkpt lat="46.289884" lon="13.802219">
        <ele>659.591979264</ele>
        <time>2011-02-05T08:36:22Z</time>
      </trkpt>
      <trkpt lat="46.289876" lon="13.802196">
        <ele>659.591979264</ele>
        <time>2011-02-05T08:36:23Z</time>
      </trkpt>
      <trkpt lat="46.289959" lon="13.802069">
        <ele>659.591979264</ele>
        <time>2011-02-05T08:36:37Z</time>
      </trkpt>
      <trkpt lat="46.289945" lon="13.802059">
        <ele>659.591979264</ele>
        <time>2011-02-05T08:36:42Z</time>
      </trkpt>
      <trkpt lat="46.289853" lon="13.802053">
        <ele>660.0719734272</ele>
        <time>2011-02-05T08:36:49Z</time>
      </trkpt>
      <trkpt lat="46.289769" lon="13.802001">
        <ele>659.591979264</ele>
        <time>2011-02-05T08:37:00Z</time>
      </trkpt>
      <trkpt lat="46.289665" lon="13.801905">
        <ele>660.0719734272</ele>
        <time>2011-02-05T08:37:08Z</time>
      </trkpt>
      <trkpt lat="46.289612" lon="13.801861">
        <ele>660.5519675904</ele>
        <time>2011-02-05T08:37:13Z</time>
      </trkpt>
      <trkpt lat="46.289556" lon="13.801786">
        <ele>659.591979264</ele>
        <time>2011-02-05T08:37:26Z</time>
      </trkpt>
      <trkpt lat="46.289565" lon="13.801761">
        <ele>660.5519675904</ele>
        <time>2011-02-05T08:37:30Z</time>
      </trkpt>
      <trkpt lat="46.289528" lon="13.801671">
        <ele>661.5119559168</ele>
        <time>2011-02-05T08:37:35Z</time>
      </trkpt>
      <trkpt lat="46.289523" lon="13.801459">
        <ele>661.5119559168</ele>
        <time>2011-02-05T08:37:46Z</time>
      </trkpt>
      <trkpt lat="46.289536" lon="13.801393">
        <ele>662.0019499584</ele>
        <time>2011-02-05T08:37:50Z</time>
      </trkpt>
      <trkpt lat="46.289557" lon="13.801232">
        <ele>662.0019499584</ele>
        <time>2011-02-05T08:37:58Z</time>
      </trkpt>
      <trkpt lat="46.289567" lon="13.801160">
        <ele>662.4819441216</ele>
        <time>2011-02-05T08:38:05Z</time>
      </trkpt>
      <trkpt lat="46.289580" lon="13.801059">
        <ele>663.441932448</ele>
        <time>2011-02-05T08:38:18Z</time>
      </trkpt>
      <trkpt lat="46.289586" lon="13.801062">
        <ele>662.9619382848</ele>
        <time>2011-02-05T08:38:38Z</time>
      </trkpt>
      <trkpt lat="46.289596" lon="13.801027">
        <ele>662.9619382848</ele>
        <time>2011-02-05T08:38:41Z</time>
      </trkpt>
      <trkpt lat="46.289603" lon="13.800995">
        <ele>662.9619382848</ele>
        <time>2011-02-05T08:38:42Z</time>
      </trkpt>
      <trkpt lat="46.289607" lon="13.800979">
        <ele>663.441932448</ele>
        <time>2011-02-05T08:38:44Z</time>
      </trkpt>
      <trkpt lat="46.289605" lon="13.800940">
        <ele>663.9219266112</ele>
        <time>2011-02-05T08:38:55Z</time>
      </trkpt>
      <trkpt lat="46.289646" lon="13.800839">
        <ele>664.4019207744</ele>
        <time>2011-02-05T08:39:12Z</time>
      </trkpt>
      <trkpt lat="46.289640" lon="13.800847">
        <ele>665.3619091008</ele>
        <time>2011-02-05T08:39:24Z</time>
      </trkpt>
      <trkpt lat="46.289655" lon="13.800764">
        <ele>667.2818857536</ele>
        <time>2011-02-05T08:39:36Z</time>
      </trkpt>
      <trkpt lat="46.289726" lon="13.800686">
        <ele>669.2118622848</ele>
        <time>2011-02-05T08:39:49Z</time>
      </trkpt>
      <trkpt lat="46.289753" lon="13.800568">
        <ele>670.6518447744</ele>
        <time>2011-02-05T08:39:59Z</time>
      </trkpt>
      <trkpt lat="46.289785" lon="13.800454">
        <ele>672.091827264</ele>
        <time>2011-02-05T08:40:10Z</time>
      </trkpt>
      <trkpt lat="46.289784" lon="13.800366">
        <ele>671.6118331008</ele>
        <time>2011-02-05T08:40:20Z</time>
      </trkpt>
      <trkpt lat="46.289769" lon="13.800232">
        <ele>672.5718214272</ele>
        <time>2011-02-05T08:40:30Z</time>
      </trkpt>
      <trkpt lat="46.289769" lon="13.800194">
        <ele>672.5718214272</ele>
        <time>2011-02-05T08:40:33Z</time>
      </trkpt>
      <trkpt lat="46.289775" lon="13.799981">
        <ele>673.0518155904</ele>
        <time>2011-02-05T08:40:45Z</time>
      </trkpt>
      <trkpt lat="46.289782" lon="13.799935">
        <ele>673.0518155904</ele>
        <time>2011-02-05T08:40:48Z</time>
      </trkpt>
      <trkpt lat="46.289769" lon="13.799789">
        <ele>674.0118039168</ele>
        <time>2011-02-05T08:41:02Z</time>
      </trkpt>
      <trkpt lat="46.289754" lon="13.799711">
        <ele>674.0118039168</ele>
        <time>2011-02-05T08:41:12Z</time>
      </trkpt>
      <trkpt lat="46.289736" lon="13.799702">
        <ele>674.49179808</ele>
        <time>2011-02-05T08:41:29Z</time>
      </trkpt>
      <trkpt lat="46.289729" lon="13.799667">
        <ele>674.0118039168</ele>
        <time>2011-02-05T08:41:46Z</time>
      </trkpt>
      <trkpt lat="46.289685" lon="13.799477">
        <ele>674.9717922432</ele>
        <time>2011-02-05T08:41:58Z</time>
      </trkpt>
      <trkpt lat="46.289682" lon="13.799463">
        <ele>675.4517864064</ele>
        <time>2011-02-05T08:42:00Z</time>
      </trkpt>
      <trkpt lat="46.289712" lon="13.799360">
        <ele>675.9317805696</ele>
        <time>2011-02-05T08:42:09Z</time>
      </trkpt>
      <trkpt lat="46.289724" lon="13.799308">
        <ele>675.9317805696</ele>
        <time>2011-02-05T08:42:12Z</time>
      </trkpt>
      <trkpt lat="46.289734" lon="13.799204">
        <ele>676.9017687744</ele>
        <time>2011-02-05T08:42:18Z</time>
      </trkpt>
      <trkpt lat="46.289769" lon="13.799141">
        <ele>677.8617571008</ele>
        <time>2011-02-05T08:42:25Z</time>
      </trkpt>
      <trkpt lat="46.289799" lon="13.799103">
        <ele>677.8617571008</ele>
        <time>2011-02-05T08:42:31Z</time>
      </trkpt>
      <trkpt lat="46.289821" lon="13.799005">
        <ele>679.3017395904</ele>
        <time>2011-02-05T08:42:40Z</time>
      </trkpt>
      <trkpt lat="46.289828" lon="13.798971">
        <ele>679.7817337536</ele>
        <time>2011-02-05T08:42:45Z</time>
      </trkpt>
      <trkpt lat="46.289840" lon="13.798960">
        <ele>680.2617279168</ele>
        <time>2011-02-05T08:42:48Z</time>
      </trkpt>
      <trkpt lat="46.289837" lon="13.798943">
        <ele>680.74172208</ele>
        <time>2011-02-05T08:42:52Z</time>
      </trkpt>
      <trkpt lat="46.289913" lon="13.798971">
        <ele>682.6616987328</ele>
        <time>2011-02-05T08:43:06Z</time>
      </trkpt>
      <trkpt lat="46.289974" lon="13.798934">
        <ele>683.6216870592</ele>
        <time>2011-02-05T08:43:14Z</time>
      </trkpt>
      <trkpt lat="46.289980" lon="13.798930">
        <ele>683.6216870592</ele>
        <time>2011-02-05T08:43:15Z</time>
      </trkpt>
      <trkpt lat="46.290015" lon="13.798899">
        <ele>684.591675264</ele>
        <time>2011-02-05T08:43:19Z</time>
      </trkpt>
      <trkpt lat="46.290034" lon="13.798852">
        <ele>685.0716694272</ele>
        <time>2011-02-05T08:43:22Z</time>
      </trkpt>
      <trkpt lat="46.290069" lon="13.798794">
        <ele>685.5516635904</ele>
        <time>2011-02-05T08:43:26Z</time>
      </trkpt>
      <trkpt lat="46.290145" lon="13.798704">
        <ele>686.99164608</ele>
        <time>2011-02-05T08:43:38Z</time>
      </trkpt>
      <trkpt lat="46.290170" lon="13.798620">
        <ele>688.4316285696</ele>
        <time>2011-02-05T08:43:49Z</time>
      </trkpt>
      <trkpt lat="46.290101" lon="13.798584">
        <ele>689.8716110592</ele>
        <time>2011-02-05T08:44:01Z</time>
      </trkpt>
      <trkpt lat="46.290057" lon="13.798597">
        <ele>691.3215934272</ele>
        <time>2011-02-05T08:44:08Z</time>
      </trkpt>
      <trkpt lat="46.289977" lon="13.798682">
        <ele>691.8015875904</ele>
        <time>2011-02-05T08:44:19Z</time>
      </trkpt>
      <trkpt lat="46.289885" lon="13.798669">
        <ele>693.24157008</ele>
        <time>2011-02-05T08:44:32Z</time>
      </trkpt>
      <trkpt lat="46.289764" lon="13.798655">
        <ele>694.2015584064</ele>
        <time>2011-02-05T08:44:43Z</time>
      </trkpt>
      <trkpt lat="46.289752" lon="13.798645">
        <ele>694.6815525696</ele>
        <time>2011-02-05T08:44:46Z</time>
      </trkpt>
      <trkpt lat="46.289629" lon="13.798612">
        <ele>696.1215350592</ele>
        <time>2011-02-05T08:44:59Z</time>
      </trkpt>
      <trkpt lat="46.289583" lon="13.798641">
        <ele>697.5615175488</ele>
        <time>2011-02-05T08:45:10Z</time>
      </trkpt>
      <trkpt lat="46.289520" lon="13.798607">
        <ele>698.5215058752</ele>
        <time>2011-02-05T08:45:22Z</time>
      </trkpt>
      <trkpt lat="46.289462" lon="13.798592">
        <ele>699.49149408</ele>
        <time>2011-02-05T08:45:33Z</time>
      </trkpt>
      <trkpt lat="46.289506" lon="13.798651">
        <ele>701.891464896</ele>
        <time>2011-02-05T08:45:45Z</time>
      </trkpt>
      <trkpt lat="46.289498" lon="13.798651">
        <ele>702.3714590592</ele>
        <time>2011-02-05T08:46:03Z</time>
      </trkpt>
      <trkpt lat="46.289510" lon="13.798652">
        <ele>702.8514532224</ele>
        <time>2011-02-05T08:46:05Z</time>
      </trkpt>
      <trkpt lat="46.289524" lon="13.798641">
        <ele>703.8114415488</ele>
        <time>2011-02-05T08:46:16Z</time>
      </trkpt>
      <trkpt lat="46.289514" lon="13.798643">
        <ele>703.3314473856</ele>
        <time>2011-02-05T08:46:39Z</time>
      </trkpt>
      <trkpt lat="46.289514" lon="13.798663">
        <ele>703.3314473856</ele>
        <time>2011-02-05T08:46:53Z</time>
      </trkpt>
      <trkpt lat="46.289501" lon="13.798665">
        <ele>702.8514532224</ele>
        <time>2011-02-05T08:46:55Z</time>
      </trkpt>
      <trkpt lat="46.289481" lon="13.798649">
        <ele>702.3714590592</ele>
        <time>2011-02-05T08:47:10Z</time>
      </trkpt>
      <trkpt lat="46.289479" lon="13.798646">
        <ele>702.3714590592</ele>
        <time>2011-02-05T08:47:47Z</time>
      </trkpt>
      <trkpt lat="46.289480" lon="13.798649">
        <ele>702.8514532224</ele>
        <time>2011-02-05T08:48:01Z</time>
      </trkpt>
      <trkpt lat="46.289543" lon="13.798704">
        <ele>703.3314473856</ele>
        <time>2011-02-05T08:48:07Z</time>
      </trkpt>
      <trkpt lat="46.289662" lon="13.798667">
        <ele>704.291435712</ele>
        <time>2011-02-05T08:48:19Z</time>
      </trkpt>
      <trkpt lat="46.289746" lon="13.798591">
        <ele>705.74141808</ele>
        <time>2011-02-05T08:48:31Z</time>
      </trkpt>
      <trkpt lat="46.289835" lon="13.798465">
        <ele>707.1814005696</ele>
        <time>2011-02-05T08:48:41Z</time>
      </trkpt>
      <trkpt lat="46.289886" lon="13.798421">
        <ele>708.6213830592</ele>
        <time>2011-02-05T08:48:50Z</time>
      </trkpt>
      <trkpt lat="46.289955" lon="13.798318">
        <ele>709.5813713856</ele>
        <time>2011-02-05T08:48:58Z</time>
      </trkpt>
      <trkpt lat="46.290017" lon="13.798265">
        <ele>711.0213538752</ele>
        <time>2011-02-05T08:49:06Z</time>
      </trkpt>
      <trkpt lat="46.289999" lon="13.798162">
        <ele>711.9813422016</ele>
        <time>2011-02-05T08:49:13Z</time>
      </trkpt>
      <trkpt lat="46.289870" lon="13.798143">
        <ele>713.9113187328</ele>
        <time>2011-02-05T08:49:25Z</time>
      </trkpt>
      <trkpt lat="46.289770" lon="13.798170">
        <ele>714.391312896</ele>
        <time>2011-02-05T08:49:36Z</time>
      </trkpt>
      <trkpt lat="46.289761" lon="13.798176">
        <ele>714.391312896</ele>
        <time>2011-02-05T08:49:56Z</time>
      </trkpt>
      <trkpt lat="46.289725" lon="13.798183">
        <ele>714.391312896</ele>
        <time>2011-02-05T08:50:14Z</time>
      </trkpt>
      <trkpt lat="46.289651" lon="13.798148">
        <ele>715.3513012224</ele>
        <time>2011-02-05T08:50:24Z</time>
      </trkpt>
      <trkpt lat="46.289612" lon="13.798137">
        <ele>715.3513012224</ele>
        <time>2011-02-05T08:50:27Z</time>
      </trkpt>
      <trkpt lat="46.289558" lon="13.798174">
        <ele>716.791283712</ele>
        <time>2011-02-05T08:50:35Z</time>
      </trkpt>
      <trkpt lat="46.289500" lon="13.798224">
        <ele>716.791283712</ele>
        <time>2011-02-05T08:50:42Z</time>
      </trkpt>
      <trkpt lat="46.289457" lon="13.798226">
        <ele>717.7512720384</ele>
        <time>2011-02-05T08:50:47Z</time>
      </trkpt>
      <trkpt lat="46.289473" lon="13.798225">
        <ele>718.2312662016</ele>
        <time>2011-02-05T08:50:58Z</time>
      </trkpt>
      <trkpt lat="46.289587" lon="13.798290">
        <ele>719.191254528</ele>
        <time>2011-02-05T08:51:09Z</time>
      </trkpt>
      <trkpt lat="46.289656" lon="13.798271">
        <ele>721.1212310592</ele>
        <time>2011-02-05T08:51:21Z</time>
      </trkpt>
      <trkpt lat="46.289721" lon="13.798230">
        <ele>722.5612135488</ele>
        <time>2011-02-05T08:51:31Z</time>
      </trkpt>
      <trkpt lat="46.289739" lon="13.798217">
        <ele>722.0812193856</ele>
        <time>2011-02-05T08:51:33Z</time>
      </trkpt>
      <trkpt lat="46.289787" lon="13.798144">
        <ele>724.4811902016</ele>
        <time>2011-02-05T08:51:44Z</time>
      </trkpt>
      <trkpt lat="46.289862" lon="13.798089">
        <ele>726.4011668544</ele>
        <time>2011-02-05T08:51:56Z</time>
      </trkpt>
      <trkpt lat="46.289938" lon="13.797956">
        <ele>727.3611551808</ele>
        <time>2011-02-05T08:52:10Z</time>
      </trkpt>
      <trkpt lat="46.289948" lon="13.797942">
        <ele>727.8511492224</ele>
        <time>2011-02-05T08:52:27Z</time>
      </trkpt>
      <trkpt lat="46.289948" lon="13.797942">
        <ele>727.8511492224</ele>
        <time>2011-02-05T08:52:29Z</time>
      </trkpt>
      <trkpt lat="46.289968" lon="13.797906">
        <ele>729.291131712</ele>
        <time>2011-02-05T08:52:38Z</time>
      </trkpt>
      <trkpt lat="46.290026" lon="13.797853">
        <ele>729.7711258752</ele>
        <time>2011-02-05T08:52:50Z</time>
      </trkpt>
      <trkpt lat="46.290105" lon="13.797839">
        <ele>730.7311142016</ele>
        <time>2011-02-05T08:53:01Z</time>
      </trkpt>
      <trkpt lat="46.290070" lon="13.797707">
        <ele>732.1710966912</ele>
        <time>2011-02-05T08:53:15Z</time>
      </trkpt>
      <trkpt lat="46.290036" lon="13.797648">
        <ele>733.6110791808</ele>
        <time>2011-02-05T08:53:25Z</time>
      </trkpt>
      <trkpt lat="46.290000" lon="13.797556">
        <ele>734.091073344</ele>
        <time>2011-02-05T08:53:36Z</time>
      </trkpt>
      <trkpt lat="46.290031" lon="13.797562">
        <ele>736.0210498752</ele>
        <time>2011-02-05T08:53:47Z</time>
      </trkpt>
      <trkpt lat="46.290059" lon="13.797527">
        <ele>737.941026528</ele>
        <time>2011-02-05T08:53:59Z</time>
      </trkpt>
      <trkpt lat="46.290066" lon="13.797496">
        <ele>740.340997344</ele>
        <time>2011-02-05T08:54:13Z</time>
      </trkpt>
      <trkpt lat="46.290058" lon="13.797406">
        <ele>742.7509680384</ele>
        <time>2011-02-05T08:54:27Z</time>
      </trkpt>
      <trkpt lat="46.290032" lon="13.797337">
        <ele>744.190950528</ele>
        <time>2011-02-05T08:54:40Z</time>
      </trkpt>
      <trkpt lat="46.290055" lon="13.797335">
        <ele>745.6309330176</ele>
        <time>2011-02-05T08:54:50Z</time>
      </trkpt>
      <trkpt lat="46.290058" lon="13.797342">
        <ele>745.6309330176</ele>
        <time>2011-02-05T08:54:52Z</time>
      </trkpt>
      <trkpt lat="46.290079" lon="13.797376">
        <ele>747.0709155072</ele>
        <time>2011-02-05T08:55:03Z</time>
      </trkpt>
      <trkpt lat="46.290184" lon="13.797407">
        <ele>748.5108979968</ele>
        <time>2011-02-05T08:55:15Z</time>
      </trkpt>
      <trkpt lat="46.290242" lon="13.797416">
        <ele>748.99089216</ele>
        <time>2011-02-05T08:55:20Z</time>
      </trkpt>
      <trkpt lat="46.290316" lon="13.797442">
        <ele>750.440874528</ele>
        <time>2011-02-05T08:55:31Z</time>
      </trkpt>
      <trkpt lat="46.290376" lon="13.797489">
        <ele>751.4008628544</ele>
        <time>2011-02-05T08:55:42Z</time>
      </trkpt>
      <trkpt lat="46.290389" lon="13.797452">
        <ele>752.840845344</ele>
        <time>2011-02-05T08:55:55Z</time>
      </trkpt>
      <trkpt lat="46.290349" lon="13.797338">
        <ele>754.7608219968</ele>
        <time>2011-02-05T08:56:06Z</time>
      </trkpt>
      <trkpt lat="46.290290" lon="13.797286">
        <ele>756.2008044864</ele>
        <time>2011-02-05T08:56:20Z</time>
      </trkpt>
      <trkpt lat="46.290273" lon="13.797278">
        <ele>756.6807986496</ele>
        <time>2011-02-05T08:56:36Z</time>
      </trkpt>
      <trkpt lat="46.290284" lon="13.797228">
        <ele>756.6807986496</ele>
        <time>2011-02-05T08:57:00Z</time>
      </trkpt>
      <trkpt lat="46.290269" lon="13.797184">
        <ele>757.6507868544</ele>
        <time>2011-02-05T08:57:14Z</time>
      </trkpt>
      <trkpt lat="46.290266" lon="13.797178">
        <ele>758.1307810176</ele>
        <time>2011-02-05T08:57:16Z</time>
      </trkpt>
      <trkpt lat="46.290161" lon="13.797110">
        <ele>759.090769344</ele>
        <time>2011-02-05T08:57:27Z</time>
      </trkpt>
      <trkpt lat="46.290120" lon="13.797146">
        <ele>760.5307518336</ele>
        <time>2011-02-05T08:57:42Z</time>
      </trkpt>
      <trkpt lat="46.290197" lon="13.797184">
        <ele>762.4507284864</ele>
        <time>2011-02-05T08:57:55Z</time>
      </trkpt>
      <trkpt lat="46.290215" lon="13.797187">
        <ele>762.4507284864</ele>
        <time>2011-02-05T08:58:02Z</time>
      </trkpt>
      <trkpt lat="46.290284" lon="13.797203">
        <ele>764.8606991808</ele>
        <time>2011-02-05T08:58:12Z</time>
      </trkpt>
      <trkpt lat="46.290356" lon="13.797238">
        <ele>765.8206875072</ele>
        <time>2011-02-05T08:58:22Z</time>
      </trkpt>
      <trkpt lat="46.290385" lon="13.797233">
        <ele>765.8206875072</ele>
        <time>2011-02-05T08:58:25Z</time>
      </trkpt>
      <trkpt lat="46.290420" lon="13.797200">
        <ele>766.3006816704</ele>
        <time>2011-02-05T08:58:33Z</time>
      </trkpt>
      <trkpt lat="46.290357" lon="13.797156">
        <ele>768.2206583232</ele>
        <time>2011-02-05T08:58:44Z</time>
      </trkpt>
      <trkpt lat="46.290328" lon="13.797063">
        <ele>769.6606408128</ele>
        <time>2011-02-05T08:58:56Z</time>
      </trkpt>
      <trkpt lat="46.290279" lon="13.796946">
        <ele>771.1006233024</ele>
        <time>2011-02-05T08:59:10Z</time>
      </trkpt>
      <trkpt lat="46.290200" lon="13.796792">
        <ele>773.0305998336</ele>
        <time>2011-02-05T08:59:23Z</time>
      </trkpt>
      <trkpt lat="46.290154" lon="13.796699">
        <ele>774.4705823232</ele>
        <time>2011-02-05T08:59:37Z</time>
      </trkpt>
      <trkpt lat="46.290149" lon="13.796598">
        <ele>775.9105648128</ele>
        <time>2011-02-05T08:59:49Z</time>
      </trkpt>
      <trkpt lat="46.290141" lon="13.796528">
        <ele>776.8705531392</ele>
        <time>2011-02-05T08:59:57Z</time>
      </trkpt>
      <trkpt lat="46.290132" lon="13.796455">
        <ele>777.8305414656</ele>
        <time>2011-02-05T09:00:09Z</time>
      </trkpt>
      <trkpt lat="46.290132" lon="13.796396">
        <ele>778.8005296704</ele>
        <time>2011-02-05T09:00:23Z</time>
      </trkpt>
      <trkpt lat="46.290049" lon="13.796381">
        <ele>779.7605179968</ele>
        <time>2011-02-05T09:00:32Z</time>
      </trkpt>
      <trkpt lat="46.290030" lon="13.796383">
        <ele>780.24051216</ele>
        <time>2011-02-05T09:00:33Z</time>
      </trkpt>
      <trkpt lat="46.289932" lon="13.796409">
        <ele>781.2005004864</ele>
        <time>2011-02-05T09:00:43Z</time>
      </trkpt>
      <trkpt lat="46.289865" lon="13.796440">
        <ele>781.6804946496</ele>
        <time>2011-02-05T09:00:54Z</time>
      </trkpt>
      <trkpt lat="46.289768" lon="13.796495">
        <ele>782.640482976</ele>
        <time>2011-02-05T09:01:07Z</time>
      </trkpt>
      <trkpt lat="46.289793" lon="13.796469">
        <ele>784.0804654656</ele>
        <time>2011-02-05T09:01:17Z</time>
      </trkpt>
      <trkpt lat="46.289806" lon="13.796443">
        <ele>784.5604596288</ele>
        <time>2011-02-05T09:01:19Z</time>
      </trkpt>
      <trkpt lat="46.289832" lon="13.796413">
        <ele>784.5604596288</ele>
        <time>2011-02-05T09:01:23Z</time>
      </trkpt>
      <trkpt lat="46.289864" lon="13.796388">
        <ele>785.040453792</ele>
        <time>2011-02-05T09:01:29Z</time>
      </trkpt>
      <trkpt lat="46.289899" lon="13.796367">
        <ele>786.0104419968</ele>
        <time>2011-02-05T09:01:34Z</time>
      </trkpt>
      <trkpt lat="46.289916" lon="13.796357">
        <ele>786.0104419968</ele>
        <time>2011-02-05T09:01:35Z</time>
      </trkpt>
      <trkpt lat="46.289959" lon="13.796293">
        <ele>786.9704303232</ele>
        <time>2011-02-05T09:01:42Z</time>
      </trkpt>
      <trkpt lat="46.290027" lon="13.796164">
        <ele>788.4104128128</ele>
        <time>2011-02-05T09:01:54Z</time>
      </trkpt>
      <trkpt lat="46.290076" lon="13.796038">
        <ele>789.8503953024</ele>
        <time>2011-02-05T09:02:08Z</time>
      </trkpt>
      <trkpt lat="46.290085" lon="13.796025">
        <ele>790.3303894656</ele>
        <time>2011-02-05T09:02:11Z</time>
      </trkpt>
      <trkpt lat="46.290113" lon="13.796015">
        <ele>790.3303894656</ele>
        <time>2011-02-05T09:02:13Z</time>
      </trkpt>
      <trkpt lat="46.290125" lon="13.795936">
        <ele>790.8103836288</ele>
        <time>2011-02-05T09:02:27Z</time>
      </trkpt>
      <trkpt lat="46.290163" lon="13.795897">
        <ele>791.7703719552</ele>
        <time>2011-02-05T09:02:40Z</time>
      </trkpt>
      <trkpt lat="46.290203" lon="13.795831">
        <ele>792.7303602816</ele>
        <time>2011-02-05T09:02:54Z</time>
      </trkpt>
      <trkpt lat="46.290209" lon="13.795801">
        <ele>793.2103544448</ele>
        <time>2011-02-05T09:03:14Z</time>
      </trkpt>
      <trkpt lat="46.290217" lon="13.795711">
        <ele>794.1803426496</ele>
        <time>2011-02-05T09:03:30Z</time>
      </trkpt>
      <trkpt lat="46.290154" lon="13.795617">
        <ele>795.6203251392</ele>
        <time>2011-02-05T09:03:44Z</time>
      </trkpt>
      <trkpt lat="46.290123" lon="13.795615">
        <ele>796.1003193024</ele>
        <time>2011-02-05T09:03:48Z</time>
      </trkpt>
      <trkpt lat="46.290036" lon="13.795595">
        <ele>797.0603076288</ele>
        <time>2011-02-05T09:03:53Z</time>
      </trkpt>
      <trkpt lat="46.290014" lon="13.795610">
        <ele>797.0603076288</ele>
        <time>2011-02-05T09:03:54Z</time>
      </trkpt>
      <trkpt lat="46.289976" lon="13.795598">
        <ele>798.0202959552</ele>
        <time>2011-02-05T09:04:04Z</time>
      </trkpt>
      <trkpt lat="46.289884" lon="13.795634">
        <ele>798.9802842816</ele>
        <time>2011-02-05T09:04:13Z</time>
      </trkpt>
      <trkpt lat="46.289832" lon="13.795674">
        <ele>800.4302666496</ele>
        <time>2011-02-05T09:04:24Z</time>
      </trkpt>
      <trkpt lat="46.289832" lon="13.795664">
        <ele>800.9102608128</ele>
        <time>2011-02-05T09:04:34Z</time>
      </trkpt>
      <trkpt lat="46.289823" lon="13.795616">
        <ele>803.790225792</ele>
        <time>2011-02-05T09:04:47Z</time>
      </trkpt>
      <trkpt lat="46.289835" lon="13.795583">
        <ele>805.7102024448</ele>
        <time>2011-02-05T09:04:59Z</time>
      </trkpt>
      <trkpt lat="46.289814" lon="13.795465">
        <ele>806.6701907712</ele>
        <time>2011-02-05T09:05:14Z</time>
      </trkpt>
      <trkpt lat="46.289750" lon="13.795460">
        <ele>809.5601556288</ele>
        <time>2011-02-05T09:05:26Z</time>
      </trkpt>
      <trkpt lat="46.289754" lon="13.795427">
        <ele>811.9601264448</ele>
        <time>2011-02-05T09:05:41Z</time>
      </trkpt>
      <trkpt lat="46.289747" lon="13.795402">
        <ele>813.8801030976</ele>
        <time>2011-02-05T09:05:56Z</time>
      </trkpt>
      <trkpt lat="46.289709" lon="13.795384">
        <ele>817.2500621184</ele>
        <time>2011-02-05T09:06:09Z</time>
      </trkpt>
      <trkpt lat="46.289698" lon="13.795370">
        <ele>818.690044608</ele>
        <time>2011-02-05T09:06:14Z</time>
      </trkpt>
      <trkpt lat="46.289675" lon="13.795389">
        <ele>817.2500621184</ele>
        <time>2011-02-05T09:06:32Z</time>
      </trkpt>
      <trkpt lat="46.289597" lon="13.795475">
        <ele>818.690044608</ele>
        <time>2011-02-05T09:06:46Z</time>
      </trkpt>
      <trkpt lat="46.289588" lon="13.795480">
        <ele>820.1300270976</ele>
        <time>2011-02-05T09:07:02Z</time>
      </trkpt>
      <trkpt lat="46.289549" lon="13.795540">
        <ele>822.539997792</ele>
        <time>2011-02-05T09:07:14Z</time>
      </trkpt>
      <trkpt lat="46.289519" lon="13.795553">
        <ele>825.4199627712</ele>
        <time>2011-02-05T09:07:29Z</time>
      </trkpt>
      <trkpt lat="46.289585" lon="13.795451">
        <ele>828.2999277504</ele>
        <time>2011-02-05T09:07:44Z</time>
      </trkpt>
      <trkpt lat="46.289588" lon="13.795389">
        <ele>831.189892608</ele>
        <time>2011-02-05T09:08:00Z</time>
      </trkpt>
      <trkpt lat="46.289524" lon="13.795292">
        <ele>833.1098692608</ele>
        <time>2011-02-05T09:08:11Z</time>
      </trkpt>
      <trkpt lat="46.289547" lon="13.795278">
        <ele>834.0698575872</ele>
        <time>2011-02-05T09:08:23Z</time>
      </trkpt>
      <trkpt lat="46.289609" lon="13.795210">
        <ele>835.0298459136</ele>
        <time>2011-02-05T09:08:34Z</time>
      </trkpt>
      <trkpt lat="46.289627" lon="13.795189">
        <ele>835.98983424</ele>
        <time>2011-02-05T09:08:45Z</time>
      </trkpt>
      <trkpt lat="46.289648" lon="13.795105">
        <ele>835.98983424</ele>
        <time>2011-02-05T09:09:00Z</time>
      </trkpt>
      <trkpt lat="46.289639" lon="13.795035">
        <ele>836.9498225664</ele>
        <time>2011-02-05T09:09:12Z</time>
      </trkpt>
      <trkpt lat="46.289651" lon="13.795007">
        <ele>836.9498225664</ele>
        <time>2011-02-05T09:09:27Z</time>
      </trkpt>
      <trkpt lat="46.289674" lon="13.794884">
        <ele>838.3998049344</ele>
        <time>2011-02-05T09:09:43Z</time>
      </trkpt>
      <trkpt lat="46.289570" lon="13.794838">
        <ele>839.3597932608</ele>
        <time>2011-02-05T09:09:56Z</time>
      </trkpt>
      <trkpt lat="46.289550" lon="13.794833">
        <ele>840.3197815872</ele>
        <time>2011-02-05T09:10:11Z</time>
      </trkpt>
      <trkpt lat="46.289465" lon="13.794858">
        <ele>841.7597640768</ele>
        <time>2011-02-05T09:10:22Z</time>
      </trkpt>
      <trkpt lat="46.289390" lon="13.794898">
        <ele>842.23975824</ele>
        <time>2011-02-05T09:10:37Z</time>
      </trkpt>
      <trkpt lat="46.289307" lon="13.794916">
        <ele>844.6497289344</ele>
        <time>2011-02-05T09:10:49Z</time>
      </trkpt>
      <trkpt lat="46.289293" lon="13.794959">
        <ele>846.089711424</ele>
        <time>2011-02-05T09:11:01Z</time>
      </trkpt>
      <trkpt lat="46.289290" lon="13.794987">
        <ele>846.5697055872</ele>
        <time>2011-02-05T09:11:15Z</time>
      </trkpt>
      <trkpt lat="46.289279" lon="13.794998">
        <ele>847.5296939136</ele>
        <time>2011-02-05T09:11:28Z</time>
      </trkpt>
      <trkpt lat="46.289232" lon="13.795017">
        <ele>849.4496705664</ele>
        <time>2011-02-05T09:11:43Z</time>
      </trkpt>
      <trkpt lat="46.289200" lon="13.795176">
        <ele>851.3696472192</ele>
        <time>2011-02-05T09:11:55Z</time>
      </trkpt>
      <trkpt lat="46.289204" lon="13.795217">
        <ele>853.2996237504</ele>
        <time>2011-02-05T09:12:07Z</time>
      </trkpt>
      <trkpt lat="46.289182" lon="13.795275">
        <ele>853.7796179136</ele>
        <time>2011-02-05T09:12:18Z</time>
      </trkpt>
      <trkpt lat="46.289193" lon="13.795366">
        <ele>854.73960624</ele>
        <time>2011-02-05T09:12:29Z</time>
      </trkpt>
      <trkpt lat="46.289221" lon="13.795477">
        <ele>856.1795887296</ele>
        <time>2011-02-05T09:12:41Z</time>
      </trkpt>
      <trkpt lat="46.289238" lon="13.795665">
        <ele>858.0995653824</ele>
        <time>2011-02-05T09:12:54Z</time>
      </trkpt>
      <trkpt lat="46.289216" lon="13.795751">
        <ele>859.5495477504</ele>
        <time>2011-02-05T09:13:08Z</time>
      </trkpt>
      <trkpt lat="46.289212" lon="13.795729">
        <ele>860.98953024</ele>
        <time>2011-02-05T09:13:17Z</time>
      </trkpt>
      <trkpt lat="46.289204" lon="13.795654">
        <ele>861.4695244032</ele>
        <time>2011-02-05T09:13:26Z</time>
      </trkpt>
      <trkpt lat="46.289154" lon="13.795549">
        <ele>862.9095068928</ele>
        <time>2011-02-05T09:13:38Z</time>
      </trkpt>
      <trkpt lat="46.289146" lon="13.795473">
        <ele>864.8294835456</ele>
        <time>2011-02-05T09:13:47Z</time>
      </trkpt>
      <trkpt lat="46.289132" lon="13.795534">
        <ele>866.2794659136</ele>
        <time>2011-02-05T09:13:59Z</time>
      </trkpt>
      <trkpt lat="46.289121" lon="13.795592">
        <ele>867.23945424</ele>
        <time>2011-02-05T09:14:10Z</time>
      </trkpt>
      <trkpt lat="46.289144" lon="13.795707">
        <ele>868.6794367296</ele>
        <time>2011-02-05T09:14:21Z</time>
      </trkpt>
      <trkpt lat="46.289142" lon="13.795864">
        <ele>869.1594308928</ele>
        <time>2011-02-05T09:14:30Z</time>
      </trkpt>
      <trkpt lat="46.289123" lon="13.796065">
        <ele>871.0794075456</ele>
        <time>2011-02-05T09:14:44Z</time>
      </trkpt>
      <trkpt lat="46.289079" lon="13.796096">
        <ele>872.5193900352</ele>
        <time>2011-02-05T09:14:55Z</time>
      </trkpt>
      <trkpt lat="46.289083" lon="13.796104">
        <ele>872.039395872</ele>
        <time>2011-02-05T09:15:12Z</time>
      </trkpt>
      <trkpt lat="46.289080" lon="13.796109">
        <ele>872.039395872</ele>
        <time>2011-02-05T09:15:36Z</time>
      </trkpt>
      <trkpt lat="46.289080" lon="13.796108">
        <ele>872.5193900352</ele>
        <time>2011-02-05T09:16:02Z</time>
      </trkpt>
      <trkpt lat="46.289078" lon="13.796112">
        <ele>872.5193900352</ele>
        <time>2011-02-05T09:16:33Z</time>
      </trkpt>
      <trkpt lat="46.289081" lon="13.796111">
        <ele>872.5193900352</ele>
        <time>2011-02-05T09:17:04Z</time>
      </trkpt>
      <trkpt lat="46.289088" lon="13.796071">
        <ele>873.48937824</ele>
        <time>2011-02-05T09:17:23Z</time>
      </trkpt>
      <trkpt lat="46.289104" lon="13.795940">
        <ele>874.4493665664</ele>
        <time>2011-02-05T09:17:37Z</time>
      </trkpt>
      <trkpt lat="46.289084" lon="13.795853">
        <ele>875.4093548928</ele>
        <time>2011-02-05T09:17:56Z</time>
      </trkpt>
      <trkpt lat="46.289092" lon="13.795783">
        <ele>876.3693432192</ele>
        <time>2011-02-05T09:18:06Z</time>
      </trkpt>
      <trkpt lat="46.289090" lon="13.795626">
        <ele>877.8093257088</ele>
        <time>2011-02-05T09:18:21Z</time>
      </trkpt>
      <trkpt lat="46.289078" lon="13.795444">
        <ele>879.2493081984</ele>
        <time>2011-02-05T09:18:35Z</time>
      </trkpt>
      <trkpt lat="46.289051" lon="13.795359">
        <ele>879.7293023616</ele>
        <time>2011-02-05T09:18:48Z</time>
      </trkpt>
      <trkpt lat="46.289020" lon="13.795234">
        <ele>881.1792847296</ele>
        <time>2011-02-05T09:19:00Z</time>
      </trkpt>
      <trkpt lat="46.288992" lon="13.795152">
        <ele>882.6192672192</ele>
        <time>2011-02-05T09:19:12Z</time>
      </trkpt>
      <trkpt lat="46.288983" lon="13.795058">
        <ele>883.0992613824</ele>
        <time>2011-02-05T09:19:31Z</time>
      </trkpt>
      <trkpt lat="46.288912" lon="13.795090">
        <ele>885.0192380352</ele>
        <time>2011-02-05T09:19:45Z</time>
      </trkpt>
      <trkpt lat="46.288848" lon="13.795261">
        <ele>885.9792263616</ele>
        <time>2011-02-05T09:20:00Z</time>
      </trkpt>
      <trkpt lat="46.288821" lon="13.795390">
        <ele>885.9792263616</ele>
        <time>2011-02-05T09:20:08Z</time>
      </trkpt>
      <trkpt lat="46.288832" lon="13.795485">
        <ele>887.4192088512</ele>
        <time>2011-02-05T09:20:17Z</time>
      </trkpt>
      <trkpt lat="46.288838" lon="13.795526">
        <ele>888.389197056</ele>
        <time>2011-02-05T09:20:29Z</time>
      </trkpt>
      <trkpt lat="46.288854" lon="13.795690">
        <ele>890.3091737088</ele>
        <time>2011-02-05T09:20:40Z</time>
      </trkpt>
      <trkpt lat="46.288839" lon="13.795799">
        <ele>891.7491561984</ele>
        <time>2011-02-05T09:20:55Z</time>
      </trkpt>
      <trkpt lat="46.288830" lon="13.795836">
        <ele>891.7491561984</ele>
        <time>2011-02-05T09:20:55Z</time>
      </trkpt>
      <trkpt lat="46.288828" lon="13.795929">
        <ele>892.7091445248</ele>
        <time>2011-02-05T09:21:07Z</time>
      </trkpt>
      <trkpt lat="46.288830" lon="13.795934">
        <ele>893.189138688</ele>
        <time>2011-02-05T09:21:09Z</time>
      </trkpt>
      <trkpt lat="46.288834" lon="13.796023">
        <ele>893.189138688</ele>
        <time>2011-02-05T09:21:22Z</time>
      </trkpt>
      <trkpt lat="46.288851" lon="13.796018">
        <ele>893.189138688</ele>
        <time>2011-02-05T09:21:37Z</time>
      </trkpt>
      <trkpt lat="46.288812" lon="13.796058">
        <ele>894.1491270144</ele>
        <time>2011-02-05T09:22:12Z</time>
      </trkpt>
      <trkpt lat="46.288788" lon="13.796095">
        <ele>894.6291211776</ele>
        <time>2011-02-05T09:22:26Z</time>
      </trkpt>
      <trkpt lat="46.288776" lon="13.796052">
        <ele>896.5590977088</ele>
        <time>2011-02-05T09:22:43Z</time>
      </trkpt>
      <trkpt lat="46.288773" lon="13.795919">
        <ele>898.4790743616</ele>
        <time>2011-02-05T09:22:57Z</time>
      </trkpt>
      <trkpt lat="46.288746" lon="13.795899">
        <ele>899.9190568512</ele>
        <time>2011-02-05T09:23:10Z</time>
      </trkpt>
      <trkpt lat="46.288718" lon="13.795966">
        <ele>902.3190276672</ele>
        <time>2011-02-05T09:23:24Z</time>
      </trkpt>
      <trkpt lat="46.288649" lon="13.795966">
        <ele>903.7690100352</ele>
        <time>2011-02-05T09:23:34Z</time>
      </trkpt>
      <trkpt lat="46.288573" lon="13.796114">
        <ele>904.7289983616</ele>
        <time>2011-02-05T09:23:47Z</time>
      </trkpt>
      <trkpt lat="46.288481" lon="13.796358">
        <ele>905.688986688</ele>
        <time>2011-02-05T09:24:04Z</time>
      </trkpt>
      <trkpt lat="46.288489" lon="13.796265">
        <ele>906.6489750144</ele>
        <time>2011-02-05T09:24:16Z</time>
      </trkpt>
      <trkpt lat="46.288452" lon="13.796136">
        <ele>908.088957504</ele>
        <time>2011-02-05T09:24:28Z</time>
      </trkpt>
      <trkpt lat="46.288408" lon="13.796027">
        <ele>909.0489458304</ele>
        <time>2011-02-05T09:24:43Z</time>
      </trkpt>
      <trkpt lat="46.288403" lon="13.795868">
        <ele>909.5289399936</ele>
        <time>2011-02-05T09:24:54Z</time>
      </trkpt>
      <trkpt lat="46.288383" lon="13.795896">
        <ele>910.4989281984</ele>
        <time>2011-02-05T09:25:13Z</time>
      </trkpt>
      <trkpt lat="46.288407" lon="13.795862">
        <ele>911.938910688</ele>
        <time>2011-02-05T09:25:28Z</time>
      </trkpt>
      <trkpt lat="46.288395" lon="13.795761">
        <ele>913.8588873408</ele>
        <time>2011-02-05T09:25:43Z</time>
      </trkpt>
      <trkpt lat="46.288346" lon="13.795736">
        <ele>916.2588581568</ele>
        <time>2011-02-05T09:25:56Z</time>
      </trkpt>
      <trkpt lat="46.288260" lon="13.795778">
        <ele>917.7088405248</ele>
        <time>2011-02-05T09:26:14Z</time>
      </trkpt>
      <trkpt lat="46.288187" lon="13.795955">
        <ele>919.1488230144</ele>
        <time>2011-02-05T09:26:27Z</time>
      </trkpt>
      <trkpt lat="46.288176" lon="13.795993">
        <ele>920.1088113408</ele>
        <time>2011-02-05T09:26:46Z</time>
      </trkpt>
      <trkpt lat="46.288184" lon="13.795978">
        <ele>921.0687996672</ele>
        <time>2011-02-05T09:27:00Z</time>
      </trkpt>
      <trkpt lat="46.288228" lon="13.795854">
        <ele>921.5487938304</ele>
        <time>2011-02-05T09:27:14Z</time>
      </trkpt>
      <trkpt lat="46.288257" lon="13.795756">
        <ele>923.4687704832</ele>
        <time>2011-02-05T09:27:31Z</time>
      </trkpt>
      <trkpt lat="46.288262" lon="13.795699">
        <ele>923.4687704832</ele>
        <time>2011-02-05T09:27:44Z</time>
      </trkpt>
      <trkpt lat="46.288208" lon="13.795666">
        <ele>923.9487646464</ele>
        <time>2011-02-05T09:28:08Z</time>
      </trkpt>
      <trkpt lat="46.288121" lon="13.795712">
        <ele>925.3987470144</ele>
        <time>2011-02-05T09:28:22Z</time>
      </trkpt>
      <trkpt lat="46.288073" lon="13.795852">
        <ele>926.3587353408</ele>
        <time>2011-02-05T09:28:34Z</time>
      </trkpt>
      <trkpt lat="46.288103" lon="13.795923">
        <ele>928.2787119936</ele>
        <time>2011-02-05T09:28:46Z</time>
      </trkpt>
      <trkpt lat="46.288046" lon="13.796056">
        <ele>928.7587061568</ele>
        <time>2011-02-05T09:28:57Z</time>
      </trkpt>
      <trkpt lat="46.288027" lon="13.796103">
        <ele>928.7587061568</ele>
        <time>2011-02-05T09:28:58Z</time>
      </trkpt>
      <trkpt lat="46.287939" lon="13.796278">
        <ele>929.7186944832</ele>
        <time>2011-02-05T09:29:12Z</time>
      </trkpt>
      <trkpt lat="46.287889" lon="13.796477">
        <ele>930.6786828096</ele>
        <time>2011-02-05T09:29:24Z</time>
      </trkpt>
      <trkpt lat="46.287875" lon="13.796621">
        <ele>932.1286651776</ele>
        <time>2011-02-05T09:29:39Z</time>
      </trkpt>
      <trkpt lat="46.287881" lon="13.796695">
        <ele>932.6086593408</ele>
        <time>2011-02-05T09:29:51Z</time>
      </trkpt>
      <trkpt lat="46.287890" lon="13.796757">
        <ele>933.5686476672</ele>
        <time>2011-02-05T09:30:03Z</time>
      </trkpt>
      <trkpt lat="46.287856" lon="13.796880">
        <ele>934.5286359936</ele>
        <time>2011-02-05T09:30:19Z</time>
      </trkpt>
      <trkpt lat="46.287816" lon="13.797039">
        <ele>936.4486126464</ele>
        <time>2011-02-05T09:30:34Z</time>
      </trkpt>
      <trkpt lat="46.287821" lon="13.797078">
        <ele>936.4486126464</ele>
        <time>2011-02-05T09:30:56Z</time>
      </trkpt>
      <trkpt lat="46.287821" lon="13.797078">
        <ele>935.9686184832</ele>
        <time>2011-02-05T09:31:16Z</time>
      </trkpt>
      <trkpt lat="46.287842" lon="13.797004">
        <ele>935.9686184832</ele>
        <time>2011-02-05T09:31:44Z</time>
      </trkpt>
      <trkpt lat="46.287812" lon="13.796888">
        <ele>936.9286068096</ele>
        <time>2011-02-05T09:32:02Z</time>
      </trkpt>
      <trkpt lat="46.287796" lon="13.796843">
        <ele>938.3685892992</ele>
        <time>2011-02-05T09:32:18Z</time>
      </trkpt>
      <trkpt lat="46.287783" lon="13.796791">
        <ele>940.7785599936</ele>
        <time>2011-02-05T09:32:33Z</time>
      </trkpt>
      <trkpt lat="46.287774" lon="13.796689">
        <ele>942.6985366464</ele>
        <time>2011-02-05T09:32:48Z</time>
      </trkpt>
      <trkpt lat="46.287755" lon="13.796544">
        <ele>945.0985074624</ele>
        <time>2011-02-05T09:33:00Z</time>
      </trkpt>
      <trkpt lat="46.287754" lon="13.796488">
        <ele>945.0985074624</ele>
        <time>2011-02-05T09:33:16Z</time>
      </trkpt>
      <trkpt lat="46.287741" lon="13.796463">
        <ele>946.0584957888</ele>
        <time>2011-02-05T09:33:39Z</time>
      </trkpt>
      <trkpt lat="46.287735" lon="13.796342">
        <ele>947.98847232</ele>
        <time>2011-02-05T09:33:53Z</time>
      </trkpt>
      <trkpt lat="46.287744" lon="13.796202">
        <ele>948.9484606464</ele>
        <time>2011-02-05T09:34:05Z</time>
      </trkpt>
      <trkpt lat="46.287723" lon="13.796142">
        <ele>949.9084489728</ele>
        <time>2011-02-05T09:34:20Z</time>
      </trkpt>
      <trkpt lat="46.287713" lon="13.796121">
        <ele>950.8684372992</ele>
        <time>2011-02-05T09:34:36Z</time>
      </trkpt>
      <trkpt lat="46.287676" lon="13.796025">
        <ele>951.3484314624</ele>
        <time>2011-02-05T09:34:52Z</time>
      </trkpt>
      <trkpt lat="46.287655" lon="13.795954">
        <ele>952.788413952</ele>
        <time>2011-02-05T09:35:04Z</time>
      </trkpt>
      <trkpt lat="46.287651" lon="13.795845">
        <ele>953.7584021568</ele>
        <time>2011-02-05T09:35:19Z</time>
      </trkpt>
      <trkpt lat="46.287641" lon="13.795726">
        <ele>954.7183904832</ele>
        <time>2011-02-05T09:35:31Z</time>
      </trkpt>
      <trkpt lat="46.287630" lon="13.795667">
        <ele>954.7183904832</ele>
        <time>2011-02-05T09:35:46Z</time>
      </trkpt>
      <trkpt lat="46.287630" lon="13.795667">
        <ele>955.1983846464</ele>
        <time>2011-02-05T09:36:13Z</time>
      </trkpt>
      <trkpt lat="46.287627" lon="13.795668">
        <ele>954.7183904832</ele>
        <time>2011-02-05T09:36:40Z</time>
      </trkpt>
      <trkpt lat="46.287637" lon="13.795601">
        <ele>954.7183904832</ele>
        <time>2011-02-05T09:37:03Z</time>
      </trkpt>
      <trkpt lat="46.287684" lon="13.795461">
        <ele>956.1583729728</ele>
        <time>2011-02-05T09:37:18Z</time>
      </trkpt>
      <trkpt lat="46.287680" lon="13.795456">
        <ele>957.1183612992</ele>
        <time>2011-02-05T09:37:31Z</time>
      </trkpt>
      <trkpt lat="46.287703" lon="13.795504">
        <ele>959.038337952</ele>
        <time>2011-02-05T09:37:45Z</time>
      </trkpt>
      <trkpt lat="46.287724" lon="13.795469">
        <ele>960.4783204416</ele>
        <time>2011-02-05T09:37:57Z</time>
      </trkpt>
      <trkpt lat="46.287731" lon="13.795399">
        <ele>960.4783204416</ele>
        <time>2011-02-05T09:38:09Z</time>
      </trkpt>
      <trkpt lat="46.287764" lon="13.795349">
        <ele>961.9283028096</ele>
        <time>2011-02-05T09:38:21Z</time>
      </trkpt>
      <trkpt lat="46.287799" lon="13.795319">
        <ele>963.3682852992</ele>
        <time>2011-02-05T09:38:35Z</time>
      </trkpt>
      <trkpt lat="46.287828" lon="13.795189">
        <ele>964.8082677888</ele>
        <time>2011-02-05T09:38:48Z</time>
      </trkpt>
      <trkpt lat="46.287827" lon="13.795128">
        <ele>965.288261952</ele>
        <time>2011-02-05T09:38:55Z</time>
      </trkpt>
      <trkpt lat="46.287839" lon="13.794946">
        <ele>966.7282444416</ele>
        <time>2011-02-05T09:39:07Z</time>
      </trkpt>
      <trkpt lat="46.287818" lon="13.794828">
        <ele>968.1682269312</ele>
        <time>2011-02-05T09:39:22Z</time>
      </trkpt>
      <trkpt lat="46.287693" lon="13.794769">
        <ele>970.0982034624</ele>
        <time>2011-02-05T09:39:36Z</time>
      </trkpt>
      <trkpt lat="46.287653" lon="13.794853">
        <ele>971.0581917888</ele>
        <time>2011-02-05T09:39:49Z</time>
      </trkpt>
      <trkpt lat="46.287649" lon="13.794886">
        <ele>972.9781684416</ele>
        <time>2011-02-05T09:40:01Z</time>
      </trkpt>
      <trkpt lat="46.287634" lon="13.794816">
        <ele>973.938156768</ele>
        <time>2011-02-05T09:40:16Z</time>
      </trkpt>
      <trkpt lat="46.287643" lon="13.794769">
        <ele>976.3481274624</ele>
        <time>2011-02-05T09:40:35Z</time>
      </trkpt>
      <trkpt lat="46.287697" lon="13.794666">
        <ele>978.2681041152</ele>
        <time>2011-02-05T09:40:51Z</time>
      </trkpt>
      <trkpt lat="46.287622" lon="13.794651">
        <ele>980.6680749312</ele>
        <time>2011-02-05T09:41:06Z</time>
      </trkpt>
      <trkpt lat="46.287630" lon="13.794644">
        <ele>981.1480690944</ele>
        <time>2011-02-05T09:41:21Z</time>
      </trkpt>
      <trkpt lat="46.287638" lon="13.794631">
        <ele>982.1080574208</ele>
        <time>2011-02-05T09:41:34Z</time>
      </trkpt>
      <trkpt lat="46.287539" lon="13.794568">
        <ele>984.038033952</ele>
        <time>2011-02-05T09:41:51Z</time>
      </trkpt>
      <trkpt lat="46.287487" lon="13.794538">
        <ele>985.4780164416</ele>
        <time>2011-02-05T09:42:07Z</time>
      </trkpt>
      <trkpt lat="46.287433" lon="13.794559">
        <ele>986.438004768</ele>
        <time>2011-02-05T09:42:23Z</time>
      </trkpt>
      <trkpt lat="46.287386" lon="13.794563">
        <ele>986.9179989312</ele>
        <time>2011-02-05T09:42:36Z</time>
      </trkpt>
      <trkpt lat="46.287324" lon="13.794618">
        <ele>987.8779872576</ele>
        <time>2011-02-05T09:42:50Z</time>
      </trkpt>
      <trkpt lat="46.287289" lon="13.794605">
        <ele>987.8779872576</ele>
        <time>2011-02-05T09:43:09Z</time>
      </trkpt>
      <trkpt lat="46.287265" lon="13.794657">
        <ele>989.7979639104</ele>
        <time>2011-02-05T09:43:21Z</time>
      </trkpt>
      <trkpt lat="46.287228" lon="13.794645">
        <ele>990.287957952</ele>
        <time>2011-02-05T09:43:35Z</time>
      </trkpt>
      <trkpt lat="46.287176" lon="13.794658">
        <ele>991.2479462784</ele>
        <time>2011-02-05T09:43:48Z</time>
      </trkpt>
      <trkpt lat="46.287127" lon="13.794656">
        <ele>991.7279404416</ele>
        <time>2011-02-05T09:44:02Z</time>
      </trkpt>
      <trkpt lat="46.287026" lon="13.794667">
        <ele>993.1679229312</ele>
        <time>2011-02-05T09:44:15Z</time>
      </trkpt>
      <trkpt lat="46.286917" lon="13.794712">
        <ele>994.6079054208</ele>
        <time>2011-02-05T09:44:30Z</time>
      </trkpt>
      <trkpt lat="46.286839" lon="13.794680">
        <ele>995.087899584</ele>
        <time>2011-02-05T09:44:41Z</time>
      </trkpt>
      <trkpt lat="46.286775" lon="13.794661">
        <ele>996.5278820736</ele>
        <time>2011-02-05T09:44:54Z</time>
      </trkpt>
      <trkpt lat="46.286778" lon="13.794645">
        <ele>997.4978702784</ele>
        <time>2011-02-05T09:45:09Z</time>
      </trkpt>
      <trkpt lat="46.286864" lon="13.794729">
        <ele>997.9778644416</ele>
        <time>2011-02-05T09:45:21Z</time>
      </trkpt>
      <trkpt lat="46.286869" lon="13.794735">
        <ele>997.9778644416</ele>
        <time>2011-02-05T09:45:35Z</time>
      </trkpt>
      <trkpt lat="46.286896" lon="13.794788">
        <ele>998.937852768</ele>
        <time>2011-02-05T09:45:48Z</time>
      </trkpt>
      <trkpt lat="46.286946" lon="13.794787">
        <ele>999.8978410944</ele>
        <time>2011-02-05T09:45:59Z</time>
      </trkpt>
      <trkpt lat="46.287007" lon="13.794772">
        <ele>1000.8578294208</ele>
        <time>2011-02-05T09:46:10Z</time>
      </trkpt>
      <trkpt lat="46.287011" lon="13.794771">
        <ele>1001.337823584</ele>
        <time>2011-02-05T09:46:27Z</time>
      </trkpt>
      <trkpt lat="46.287027" lon="13.794769">
        <ele>1000.8578294208</ele>
        <time>2011-02-05T09:46:30Z</time>
      </trkpt>
      <trkpt lat="46.287060" lon="13.794742">
        <ele>1001.337823584</ele>
        <time>2011-02-05T09:46:34Z</time>
      </trkpt>
      <trkpt lat="46.287149" lon="13.794672">
        <ele>1002.7778060736</ele>
        <time>2011-02-05T09:46:46Z</time>
      </trkpt>
      <trkpt lat="46.287152" lon="13.794585">
        <ele>1004.7077826048</ele>
        <time>2011-02-05T09:46:58Z</time>
      </trkpt>
      <trkpt lat="46.287117" lon="13.794545">
        <ele>1005.187776768</ele>
        <time>2011-02-05T09:47:13Z</time>
      </trkpt>
      <trkpt lat="46.287083" lon="13.794511">
        <ele>1006.6277592576</ele>
        <time>2011-02-05T09:47:29Z</time>
      </trkpt>
      <trkpt lat="46.286967" lon="13.794491">
        <ele>1007.587747584</ele>
        <time>2011-02-05T09:47:43Z</time>
      </trkpt>
      <trkpt lat="46.286894" lon="13.794442">
        <ele>1009.0277300736</ele>
        <time>2011-02-05T09:47:58Z</time>
      </trkpt>
      <trkpt lat="46.286803" lon="13.794470">
        <ele>1010.4677125632</ele>
        <time>2011-02-05T09:48:14Z</time>
      </trkpt>
      <trkpt lat="46.286735" lon="13.794439">
        <ele>1011.9176949312</ele>
        <time>2011-02-05T09:48:27Z</time>
      </trkpt>
      <trkpt lat="46.286675" lon="13.794414">
        <ele>1013.3576774208</ele>
        <time>2011-02-05T09:48:38Z</time>
      </trkpt>
      <trkpt lat="46.286607" lon="13.794403">
        <ele>1013.3576774208</ele>
        <time>2011-02-05T09:48:50Z</time>
      </trkpt>
      <trkpt lat="46.286582" lon="13.794409">
        <ele>1014.3176657472</ele>
        <time>2011-02-05T09:49:04Z</time>
      </trkpt>
      <trkpt lat="46.286490" lon="13.794417">
        <ele>1016.2376424</ele>
        <time>2011-02-05T09:49:19Z</time>
      </trkpt>
      <trkpt lat="46.286394" lon="13.794379">
        <ele>1018.1576190528</ele>
        <time>2011-02-05T09:49:32Z</time>
      </trkpt>
      <trkpt lat="46.286291" lon="13.794399">
        <ele>1020.087595584</ele>
        <time>2011-02-05T09:49:47Z</time>
      </trkpt>
      <trkpt lat="46.286236" lon="13.794465">
        <ele>1020.5675897472</ele>
        <time>2011-02-05T09:49:58Z</time>
      </trkpt>
      <trkpt lat="46.286289" lon="13.794402">
        <ele>1022.0075722368</ele>
        <time>2011-02-05T09:50:14Z</time>
      </trkpt>
      <trkpt lat="46.286342" lon="13.794352">
        <ele>1023.4475547264</ele>
        <time>2011-02-05T09:50:28Z</time>
      </trkpt>
      <trkpt lat="46.286408" lon="13.794310">
        <ele>1024.887537216</ele>
        <time>2011-02-05T09:50:41Z</time>
      </trkpt>
      <trkpt lat="46.286513" lon="13.794288">
        <ele>1025.8475255424</ele>
        <time>2011-02-05T09:50:52Z</time>
      </trkpt>
      <trkpt lat="46.286550" lon="13.794297">
        <ele>1026.8175137472</ele>
        <time>2011-02-05T09:51:05Z</time>
      </trkpt>
      <trkpt lat="46.286574" lon="13.794284">
        <ele>1027.7775020736</ele>
        <time>2011-02-05T09:51:16Z</time>
      </trkpt>
      <trkpt lat="46.286565" lon="13.794236">
        <ele>1029.6974787264</ele>
        <time>2011-02-05T09:51:31Z</time>
      </trkpt>
      <trkpt lat="46.286550" lon="13.794182">
        <ele>1032.0974495424</ele>
        <time>2011-02-05T09:51:46Z</time>
      </trkpt>
      <trkpt lat="46.286451" lon="13.794078">
        <ele>1033.537432032</ele>
        <time>2011-02-05T09:51:59Z</time>
      </trkpt>
      <trkpt lat="46.286356" lon="13.794029">
        <ele>1034.9874144</ele>
        <time>2011-02-05T09:52:12Z</time>
      </trkpt>
      <trkpt lat="46.286308" lon="13.794023">
        <ele>1035.9474027264</ele>
        <time>2011-02-05T09:52:28Z</time>
      </trkpt>
      <trkpt lat="46.286366" lon="13.794125">
        <ele>1038.3473735424</ele>
        <time>2011-02-05T09:52:41Z</time>
      </trkpt>
      <trkpt lat="46.286439" lon="13.794096">
        <ele>1039.787356032</ele>
        <time>2011-02-05T09:52:57Z</time>
      </trkpt>
      <trkpt lat="46.286460" lon="13.794059">
        <ele>1041.2373384</ele>
        <time>2011-02-05T09:53:11Z</time>
      </trkpt>
      <trkpt lat="46.286426" lon="13.794035">
        <ele>1042.1973267264</ele>
        <time>2011-02-05T09:53:20Z</time>
      </trkpt>
      <trkpt lat="46.286311" lon="13.793992">
        <ele>1043.637309216</ele>
        <time>2011-02-05T09:53:34Z</time>
      </trkpt>
      <trkpt lat="46.286169" lon="13.793958">
        <ele>1045.0772917056</ele>
        <time>2011-02-05T09:53:49Z</time>
      </trkpt>
      <trkpt lat="46.286092" lon="13.794045">
        <ele>1045.0772917056</ele>
        <time>2011-02-05T09:54:01Z</time>
      </trkpt>
      <trkpt lat="46.286033" lon="13.794066">
        <ele>1047.4772625216</ele>
        <time>2011-02-05T09:54:17Z</time>
      </trkpt>
      <trkpt lat="46.286075" lon="13.794051">
        <ele>1049.4072390528</ele>
        <time>2011-02-05T09:54:32Z</time>
      </trkpt>
      <trkpt lat="46.286199" lon="13.793966">
        <ele>1050.3672273792</ele>
        <time>2011-02-05T09:54:44Z</time>
      </trkpt>
      <trkpt lat="46.286254" lon="13.793926">
        <ele>1051.8072098688</ele>
        <time>2011-02-05T09:54:58Z</time>
      </trkpt>
      <trkpt lat="46.286299" lon="13.793912">
        <ele>1052.287204032</ele>
        <time>2011-02-05T09:55:10Z</time>
      </trkpt>
      <trkpt lat="46.286307" lon="13.793917">
        <ele>1053.2471923584</ele>
        <time>2011-02-05T09:55:22Z</time>
      </trkpt>
      <trkpt lat="46.286303" lon="13.793913">
        <ele>1054.687174848</ele>
        <time>2011-02-05T09:55:37Z</time>
      </trkpt>
      <trkpt lat="46.286415" lon="13.793843">
        <ele>1056.137157216</ele>
        <time>2011-02-05T09:55:48Z</time>
      </trkpt>
      <trkpt lat="46.286478" lon="13.793837">
        <ele>1057.0971455424</ele>
        <time>2011-02-05T09:56:01Z</time>
      </trkpt>
      <trkpt lat="46.286536" lon="13.793828">
        <ele>1058.537128032</ele>
        <time>2011-02-05T09:56:13Z</time>
      </trkpt>
      <trkpt lat="46.286606" lon="13.793899">
        <ele>1059.9771105216</ele>
        <time>2011-02-05T09:56:24Z</time>
      </trkpt>
      <trkpt lat="46.286698" lon="13.793848">
        <ele>1060.937098848</ele>
        <time>2011-02-05T09:56:36Z</time>
      </trkpt>
      <trkpt lat="46.286636" lon="13.793732">
        <ele>1062.8570755008</ele>
        <time>2011-02-05T09:56:51Z</time>
      </trkpt>
      <trkpt lat="46.286586" lon="13.793627">
        <ele>1063.8270637056</ele>
        <time>2011-02-05T09:57:03Z</time>
      </trkpt>
      <trkpt lat="46.286616" lon="13.793507">
        <ele>1065.2670461952</ele>
        <time>2011-02-05T09:57:15Z</time>
      </trkpt>
      <trkpt lat="46.286572" lon="13.793462">
        <ele>1066.2270345216</ele>
        <time>2011-02-05T09:57:27Z</time>
      </trkpt>
      <trkpt lat="46.286398" lon="13.793489">
        <ele>1066.7070286848</ele>
        <time>2011-02-05T09:57:40Z</time>
      </trkpt>
      <trkpt lat="46.286272" lon="13.793545">
        <ele>1068.1470111744</ele>
        <time>2011-02-05T09:57:52Z</time>
      </trkpt>
      <trkpt lat="46.286189" lon="13.793593">
        <ele>1069.1069995008</ele>
        <time>2011-02-05T09:58:07Z</time>
      </trkpt>
      <trkpt lat="46.286111" lon="13.793631">
        <ele>1071.036976032</ele>
        <time>2011-02-05T09:58:20Z</time>
      </trkpt>
      <trkpt lat="46.286013" lon="13.793617">
        <ele>1071.9969643584</ele>
        <time>2011-02-05T09:58:34Z</time>
      </trkpt>
      <trkpt lat="46.285912" lon="13.793621">
        <ele>1073.436946848</ele>
        <time>2011-02-05T09:58:47Z</time>
      </trkpt>
      <trkpt lat="46.285852" lon="13.793725">
        <ele>1075.3569235008</ele>
        <time>2011-02-05T09:58:59Z</time>
      </trkpt>
      <trkpt lat="46.285811" lon="13.793702">
        <ele>1076.3169118272</ele>
        <time>2011-02-05T09:59:13Z</time>
      </trkpt>
      <trkpt lat="46.285781" lon="13.793690">
        <ele>1077.7668941952</ele>
        <time>2011-02-05T09:59:28Z</time>
      </trkpt>
      <trkpt lat="46.285830" lon="13.793721">
        <ele>1078.7268825216</ele>
        <time>2011-02-05T09:59:40Z</time>
      </trkpt>
      <trkpt lat="46.285841" lon="13.793708">
        <ele>1079.686870848</ele>
        <time>2011-02-05T09:59:53Z</time>
      </trkpt>
      <trkpt lat="46.285843" lon="13.793645">
        <ele>1081.6068475008</ele>
        <time>2011-02-05T10:00:08Z</time>
      </trkpt>
      <trkpt lat="46.285781" lon="13.793478">
        <ele>1083.5268241536</ele>
        <time>2011-02-05T10:00:23Z</time>
      </trkpt>
      <trkpt lat="46.285717" lon="13.793422">
        <ele>1084.48681248</ele>
        <time>2011-02-05T10:00:35Z</time>
      </trkpt>
      <trkpt lat="46.285762" lon="13.793434">
        <ele>1086.8967831744</ele>
        <time>2011-02-05T10:00:50Z</time>
      </trkpt>
      <trkpt lat="46.285751" lon="13.793369">
        <ele>1088.336765664</ele>
        <time>2011-02-05T10:01:08Z</time>
      </trkpt>
      <trkpt lat="46.285691" lon="13.793253">
        <ele>1090.73673648</ele>
        <time>2011-02-05T10:01:24Z</time>
      </trkpt>
      <trkpt lat="46.285654" lon="13.793162">
        <ele>1092.6667130112</ele>
        <time>2011-02-05T10:01:37Z</time>
      </trkpt>
      <trkpt lat="46.285605" lon="13.793087">
        <ele>1093.6267013376</ele>
        <time>2011-02-05T10:01:51Z</time>
      </trkpt>
      <trkpt lat="46.285567" lon="13.793032">
        <ele>1095.0666838272</ele>
        <time>2011-02-05T10:02:04Z</time>
      </trkpt>
      <trkpt lat="46.285521" lon="13.792951">
        <ele>1095.5466779904</ele>
        <time>2011-02-05T10:02:18Z</time>
      </trkpt>
      <trkpt lat="46.285494" lon="13.792929">
        <ele>1096.5066663168</ele>
        <time>2011-02-05T10:02:31Z</time>
      </trkpt>
      <trkpt lat="46.285523" lon="13.792975">
        <ele>1098.9066371328</ele>
        <time>2011-02-05T10:02:46Z</time>
      </trkpt>
      <trkpt lat="46.285521" lon="13.793044">
        <ele>1099.8766253376</ele>
        <time>2011-02-05T10:03:00Z</time>
      </trkpt>
      <trkpt lat="46.285558" lon="13.793075">
        <ele>1101.7966019904</ele>
        <time>2011-02-05T10:03:14Z</time>
      </trkpt>
      <trkpt lat="46.285654" lon="13.793104">
        <ele>1102.7565903168</ele>
        <time>2011-02-05T10:03:29Z</time>
      </trkpt>
      <trkpt lat="46.285698" lon="13.793144">
        <ele>1103.7165786432</ele>
        <time>2011-02-05T10:03:43Z</time>
      </trkpt>
      <trkpt lat="46.285820" lon="13.793161">
        <ele>1106.1165494592</ele>
        <time>2011-02-05T10:03:59Z</time>
      </trkpt>
      <trkpt lat="46.285840" lon="13.793158">
        <ele>1106.5965436224</ele>
        <time>2011-02-05T10:04:00Z</time>
      </trkpt>
      <trkpt lat="46.285956" lon="13.793040">
        <ele>1108.5265201536</ele>
        <time>2011-02-05T10:04:15Z</time>
      </trkpt>
      <trkpt lat="46.286044" lon="13.792873">
        <ele>1109.9665026432</ele>
        <time>2011-02-05T10:04:26Z</time>
      </trkpt>
      <trkpt lat="46.286135" lon="13.792702">
        <ele>1111.4064851328</ele>
        <time>2011-02-05T10:04:39Z</time>
      </trkpt>
      <trkpt lat="46.286174" lon="13.792572">
        <ele>1112.8464676224</ele>
        <time>2011-02-05T10:04:54Z</time>
      </trkpt>
      <trkpt lat="46.286221" lon="13.792463">
        <ele>1113.8064559488</ele>
        <time>2011-02-05T10:05:05Z</time>
      </trkpt>
      <trkpt lat="46.286185" lon="13.792353">
        <ele>1115.73643248</ele>
        <time>2011-02-05T10:05:17Z</time>
      </trkpt>
      <trkpt lat="46.286154" lon="13.792274">
        <ele>1116.6964208064</ele>
        <time>2011-02-05T10:05:28Z</time>
      </trkpt>
      <trkpt lat="46.286116" lon="13.792319">
        <ele>1118.136403296</ele>
        <time>2011-02-05T10:05:43Z</time>
      </trkpt>
      <trkpt lat="46.286053" lon="13.792439">
        <ele>1118.6163974592</ele>
        <time>2011-02-05T10:05:54Z</time>
      </trkpt>
      <trkpt lat="46.285995" lon="13.792470">
        <ele>1119.5763857856</ele>
        <time>2011-02-05T10:05:59Z</time>
      </trkpt>
      <trkpt lat="46.285874" lon="13.792467">
        <ele>1121.5063623168</ele>
        <time>2011-02-05T10:06:13Z</time>
      </trkpt>
      <trkpt lat="46.285800" lon="13.792503">
        <ele>1122.4663506432</ele>
        <time>2011-02-05T10:06:23Z</time>
      </trkpt>
      <trkpt lat="46.285757" lon="13.792519">
        <ele>1122.9463448064</ele>
        <time>2011-02-05T10:06:27Z</time>
      </trkpt>
      <trkpt lat="46.285704" lon="13.792569">
        <ele>1123.9063331328</ele>
        <time>2011-02-05T10:06:34Z</time>
      </trkpt>
      <trkpt lat="46.285659" lon="13.792525">
        <ele>1125.8263097856</ele>
        <time>2011-02-05T10:06:46Z</time>
      </trkpt>
      <trkpt lat="46.285599" lon="13.792502">
        <ele>1126.3063039488</ele>
        <time>2011-02-05T10:07:01Z</time>
      </trkpt>
      <trkpt lat="46.285569" lon="13.792408">
        <ele>1127.2662922752</ele>
        <time>2011-02-05T10:07:15Z</time>
      </trkpt>
      <trkpt lat="46.285507" lon="13.792358">
        <ele>1129.6762629696</ele>
        <time>2011-02-05T10:07:30Z</time>
      </trkpt>
      <trkpt lat="46.285438" lon="13.792238">
        <ele>1130.636251296</ele>
        <time>2011-02-05T10:07:46Z</time>
      </trkpt>
      <trkpt lat="46.285378" lon="13.792155">
        <ele>1132.0762337856</ele>
        <time>2011-02-05T10:07:58Z</time>
      </trkpt>
      <trkpt lat="46.285285" lon="13.792156">
        <ele>1132.5562279488</ele>
        <time>2011-02-05T10:08:11Z</time>
      </trkpt>
      <trkpt lat="46.285264" lon="13.792266">
        <ele>1133.5162162752</ele>
        <time>2011-02-05T10:08:25Z</time>
      </trkpt>
      <trkpt lat="46.285224" lon="13.792366">
        <ele>1135.436192928</ele>
        <time>2011-02-05T10:08:37Z</time>
      </trkpt>
      <trkpt lat="46.285175" lon="13.792500">
        <ele>1136.886175296</ele>
        <time>2011-02-05T10:08:51Z</time>
      </trkpt>
      <trkpt lat="46.285138" lon="13.792592">
        <ele>1138.8061519488</ele>
        <time>2011-02-05T10:09:04Z</time>
      </trkpt>
      <trkpt lat="46.285155" lon="13.792532">
        <ele>1139.7661402752</ele>
        <time>2011-02-05T10:09:18Z</time>
      </trkpt>
      <trkpt lat="46.285181" lon="13.792463">
        <ele>1140.2461344384</ele>
        <time>2011-02-05T10:09:28Z</time>
      </trkpt>
      <trkpt lat="46.285171" lon="13.792471">
        <ele>1140.2461344384</ele>
        <time>2011-02-05T10:09:46Z</time>
      </trkpt>
      <trkpt lat="46.285170" lon="13.792471">
        <ele>1140.2461344384</ele>
        <time>2011-02-05T10:10:16Z</time>
      </trkpt>
      <trkpt lat="46.285168" lon="13.792405">
        <ele>1141.2061227648</ele>
        <time>2011-02-05T10:10:33Z</time>
      </trkpt>
      <trkpt lat="46.285165" lon="13.792284">
        <ele>1143.1260994176</ele>
        <time>2011-02-05T10:10:47Z</time>
      </trkpt>
      <trkpt lat="46.285149" lon="13.792197">
        <ele>1144.5760817856</ele>
        <time>2011-02-05T10:10:59Z</time>
      </trkpt>
      <trkpt lat="46.285135" lon="13.792041">
        <ele>1145.536070112</ele>
        <time>2011-02-05T10:11:11Z</time>
      </trkpt>
      <trkpt lat="46.285140" lon="13.791990">
        <ele>1146.0160642752</ele>
        <time>2011-02-05T10:11:15Z</time>
      </trkpt>
      <trkpt lat="46.285119" lon="13.791858">
        <ele>1147.4560467648</ele>
        <time>2011-02-05T10:11:27Z</time>
      </trkpt>
      <trkpt lat="46.285017" lon="13.791991">
        <ele>1148.8960292544</ele>
        <time>2011-02-05T10:11:41Z</time>
      </trkpt>
      <trkpt lat="46.284935" lon="13.792083">
        <ele>1150.8260057856</ele>
        <time>2011-02-05T10:11:54Z</time>
      </trkpt>
      <trkpt lat="46.284938" lon="13.792083">
        <ele>1150.336011744</ele>
        <time>2011-02-05T10:12:13Z</time>
      </trkpt>
      <trkpt lat="46.284922" lon="13.792136">
        <ele>1152.2659882752</ele>
        <time>2011-02-05T10:12:43Z</time>
      </trkpt>
      <trkpt lat="46.284910" lon="13.792160">
        <ele>1152.2659882752</ele>
        <time>2011-02-05T10:12:44Z</time>
      </trkpt>
      <trkpt lat="46.284912" lon="13.792264">
        <ele>1153.7059707648</ele>
        <time>2011-02-05T10:12:58Z</time>
      </trkpt>
      <trkpt lat="46.284905" lon="13.792270">
        <ele>1153.7059707648</ele>
        <time>2011-02-05T10:13:15Z</time>
      </trkpt>
      <trkpt lat="46.284903" lon="13.792278">
        <ele>1153.7059707648</ele>
        <time>2011-02-05T10:13:18Z</time>
      </trkpt>
      <trkpt lat="46.284869" lon="13.792310">
        <ele>1154.185964928</ele>
        <time>2011-02-05T10:13:21Z</time>
      </trkpt>
      <trkpt lat="46.284737" lon="13.792409">
        <ele>1155.6259474176</ele>
        <time>2011-02-05T10:13:34Z</time>
      </trkpt>
      <trkpt lat="46.284649" lon="13.792371">
        <ele>1157.0659299072</ele>
        <time>2011-02-05T10:13:48Z</time>
      </trkpt>
      <trkpt lat="46.284649" lon="13.792385">
        <ele>1157.0659299072</ele>
        <time>2011-02-05T10:14:05Z</time>
      </trkpt>
      <trkpt lat="46.284649" lon="13.792385">
        <ele>1157.0659299072</ele>
        <time>2011-02-05T10:14:36Z</time>
      </trkpt>
      <trkpt lat="46.284649" lon="13.792419">
        <ele>1157.5459240704</ele>
        <time>2011-02-05T10:15:02Z</time>
      </trkpt>
      <trkpt lat="46.284650" lon="13.792418">
        <ele>1157.5459240704</ele>
        <time>2011-02-05T10:15:34Z</time>
      </trkpt>
      <trkpt lat="46.284650" lon="13.792420">
        <ele>1158.035918112</ele>
        <time>2011-02-05T10:16:05Z</time>
      </trkpt>
      <trkpt lat="46.284650" lon="13.792420">
        <ele>1158.035918112</ele>
        <time>2011-02-05T10:16:32Z</time>
      </trkpt>
      <trkpt lat="46.284655" lon="13.792424">
        <ele>1158.5159122752</ele>
        <time>2011-02-05T10:16:59Z</time>
      </trkpt>
      <trkpt lat="46.284655" lon="13.792428">
        <ele>1158.5159122752</ele>
        <time>2011-02-05T10:17:32Z</time>
      </trkpt>
      <trkpt lat="46.284662" lon="13.792446">
        <ele>1158.035918112</ele>
        <time>2011-02-05T10:17:51Z</time>
      </trkpt>
      <trkpt lat="46.284662" lon="13.792448">
        <ele>1158.5159122752</ele>
        <time>2011-02-05T10:18:09Z</time>
      </trkpt>
      <trkpt lat="46.284662" lon="13.792448">
        <ele>1158.5159122752</ele>
        <time>2011-02-05T10:18:39Z</time>
      </trkpt>
      <trkpt lat="46.284665" lon="13.792459">
        <ele>1158.9959064384</ele>
        <time>2011-02-05T10:19:03Z</time>
      </trkpt>
      <trkpt lat="46.284665" lon="13.792460">
        <ele>1158.9959064384</ele>
        <time>2011-02-05T10:19:36Z</time>
      </trkpt>
      <trkpt lat="46.284670" lon="13.792457">
        <ele>1158.9959064384</ele>
        <time>2011-02-05T10:20:02Z</time>
      </trkpt>
      <trkpt lat="46.284845" lon="13.792365">
        <ele>1161.3958772544</ele>
        <time>2011-02-05T10:20:19Z</time>
      </trkpt>
      <trkpt lat="46.284867" lon="13.792236">
        <ele>1162.3558655808</ele>
        <time>2011-02-05T10:20:31Z</time>
      </trkpt>
      <trkpt lat="46.284813" lon="13.792129">
        <ele>1163.7958480704</ele>
        <time>2011-02-05T10:20:45Z</time>
      </trkpt>
      <trkpt lat="46.284856" lon="13.791993">
        <ele>1164.7558363968</ele>
        <time>2011-02-05T10:20:57Z</time>
      </trkpt>
      <trkpt lat="46.284866" lon="13.791954">
        <ele>1165.2458304384</ele>
        <time>2011-02-05T10:21:10Z</time>
      </trkpt>
      <trkpt lat="46.284867" lon="13.791939">
        <ele>1165.2458304384</ele>
        <time>2011-02-05T10:21:13Z</time>
      </trkpt>
      <trkpt lat="46.284888" lon="13.791824">
        <ele>1166.685812928</ele>
        <time>2011-02-05T10:21:25Z</time>
      </trkpt>
      <trkpt lat="46.284897" lon="13.791700">
        <ele>1168.1257954176</ele>
        <time>2011-02-05T10:21:39Z</time>
      </trkpt>
      <trkpt lat="46.284907" lon="13.791597">
        <ele>1169.5657779072</ele>
        <time>2011-02-05T10:21:51Z</time>
      </trkpt>
      <trkpt lat="46.284933" lon="13.791471">
        <ele>1170.5257662336</ele>
        <time>2011-02-05T10:22:03Z</time>
      </trkpt>
      <trkpt lat="46.284913" lon="13.791383">
        <ele>1172.4557427648</ele>
        <time>2011-02-05T10:22:17Z</time>
      </trkpt>
      <trkpt lat="46.284854" lon="13.791189">
        <ele>1173.4157310912</ele>
        <time>2011-02-05T10:22:30Z</time>
      </trkpt>
      <trkpt lat="46.284823" lon="13.791037">
        <ele>1175.335707744</ele>
        <time>2011-02-05T10:22:42Z</time>
      </trkpt>
      <trkpt lat="46.284793" lon="13.790935">
        <ele>1176.7756902336</ele>
        <time>2011-02-05T10:22:57Z</time>
      </trkpt>
      <trkpt lat="46.284691" lon="13.790895">
        <ele>1178.6956668864</ele>
        <time>2011-02-05T10:23:12Z</time>
      </trkpt>
      <trkpt lat="46.284693" lon="13.790858">
        <ele>1181.1056375808</ele>
        <time>2011-02-05T10:23:28Z</time>
      </trkpt>
      <trkpt lat="46.284675" lon="13.790806">
        <ele>1183.5056083968</ele>
        <time>2011-02-05T10:23:44Z</time>
      </trkpt>
      <trkpt lat="46.284623" lon="13.790768">
        <ele>1185.4255850496</ele>
        <time>2011-02-05T10:23:59Z</time>
      </trkpt>
      <trkpt lat="46.284587" lon="13.790742">
        <ele>1188.7955440704</ele>
        <time>2011-02-05T10:24:14Z</time>
      </trkpt>
      <trkpt lat="46.284510" lon="13.790771">
        <ele>1189.2755382336</ele>
        <time>2011-02-05T10:24:37Z</time>
      </trkpt>
      <trkpt lat="46.284476" lon="13.790875">
        <ele>1190.23552656</ele>
        <time>2011-02-05T10:24:57Z</time>
      </trkpt>
      <trkpt lat="46.284462" lon="13.790909">
        <ele>1191.1955148864</ele>
        <time>2011-02-05T10:25:01Z</time>
      </trkpt>
      <trkpt lat="46.284440" lon="13.791021">
        <ele>1192.635497376</ele>
        <time>2011-02-05T10:25:12Z</time>
      </trkpt>
      <trkpt lat="46.284365" lon="13.791119">
        <ele>1193.5954857024</ele>
        <time>2011-02-05T10:25:27Z</time>
      </trkpt>
      <trkpt lat="46.284344" lon="13.791276">
        <ele>1195.0454680704</ele>
        <time>2011-02-05T10:25:40Z</time>
      </trkpt>
      <trkpt lat="46.284342" lon="13.791416">
        <ele>1196.48545056</ele>
        <time>2011-02-05T10:25:53Z</time>
      </trkpt>
      <trkpt lat="46.284290" lon="13.791470">
        <ele>1197.9254330496</ele>
        <time>2011-02-05T10:26:05Z</time>
      </trkpt>
      <trkpt lat="46.284207" lon="13.791466">
        <ele>1199.8454097024</ele>
        <time>2011-02-05T10:26:20Z</time>
      </trkpt>
      <trkpt lat="46.284194" lon="13.791456">
        <ele>1200.3254038656</ele>
        <time>2011-02-05T10:26:37Z</time>
      </trkpt>
      <trkpt lat="46.284159" lon="13.791481">
        <ele>1200.8053980288</ele>
        <time>2011-02-05T10:26:44Z</time>
      </trkpt>
      <trkpt lat="46.284070" lon="13.791513">
        <ele>1201.7753862336</ele>
        <time>2011-02-05T10:26:55Z</time>
      </trkpt>
      <trkpt lat="46.284050" lon="13.791505">
        <ele>1202.2553803968</ele>
        <time>2011-02-05T10:27:09Z</time>
      </trkpt>
      <trkpt lat="46.284061" lon="13.791504">
        <ele>1202.73537456</ele>
        <time>2011-02-05T10:27:35Z</time>
      </trkpt>
      <trkpt lat="46.284050" lon="13.791506">
        <ele>1203.6953628864</ele>
        <time>2011-02-05T10:27:54Z</time>
      </trkpt>
      <trkpt lat="46.284044" lon="13.791509">
        <ele>1203.6953628864</ele>
        <time>2011-02-05T10:28:12Z</time>
      </trkpt>
      <trkpt lat="46.284045" lon="13.791509">
        <ele>1203.2153687232</ele>
        <time>2011-02-05T10:28:37Z</time>
      </trkpt>
      <trkpt lat="46.284074" lon="13.791495">
        <ele>1204.1753570496</ele>
        <time>2011-02-05T10:28:56Z</time>
      </trkpt>
      <trkpt lat="46.284161" lon="13.791479">
        <ele>1205.135345376</ele>
        <time>2011-02-05T10:29:11Z</time>
      </trkpt>
      <trkpt lat="46.284226" lon="13.791402">
        <ele>1207.0553220288</ele>
        <time>2011-02-05T10:29:23Z</time>
      </trkpt>
      <trkpt lat="46.284232" lon="13.791331">
        <ele>1207.535316192</ele>
        <time>2011-02-05T10:29:30Z</time>
      </trkpt>
      <trkpt lat="46.284236" lon="13.791278">
        <ele>1207.0553220288</ele>
        <time>2011-02-05T10:29:34Z</time>
      </trkpt>
      <trkpt lat="46.284246" lon="13.791248">
        <ele>1207.535316192</ele>
        <time>2011-02-05T10:29:38Z</time>
      </trkpt>
      <trkpt lat="46.284189" lon="13.791201">
        <ele>1208.4953045184</ele>
        <time>2011-02-05T10:29:50Z</time>
      </trkpt>
      <trkpt lat="46.284178" lon="13.791209">
        <ele>1208.98529856</ele>
        <time>2011-02-05T10:30:13Z</time>
      </trkpt>
      <trkpt lat="46.284204" lon="13.791133">
        <ele>1210.4252810496</ele>
        <time>2011-02-05T10:30:28Z</time>
      </trkpt>
      <trkpt lat="46.284180" lon="13.791034">
        <ele>1211.385269376</ele>
        <time>2011-02-05T10:30:44Z</time>
      </trkpt>
      <trkpt lat="46.284178" lon="13.791001">
        <ele>1211.385269376</ele>
        <time>2011-02-05T10:30:48Z</time>
      </trkpt>
      <trkpt lat="46.284184" lon="13.790894">
        <ele>1212.3452577024</ele>
        <time>2011-02-05T10:30:58Z</time>
      </trkpt>
      <trkpt lat="46.284157" lon="13.790814">
        <ele>1213.3052460288</ele>
        <time>2011-02-05T10:31:07Z</time>
      </trkpt>
      <trkpt lat="46.284148" lon="13.790816">
        <ele>1213.3052460288</ele>
        <time>2011-02-05T10:31:29Z</time>
      </trkpt>
      <trkpt lat="46.284146" lon="13.790821">
        <ele>1213.3052460288</ele>
        <time>2011-02-05T10:31:58Z</time>
      </trkpt>
      <trkpt lat="46.284158" lon="13.790702">
        <ele>1214.2652343552</ele>
        <time>2011-02-05T10:32:13Z</time>
      </trkpt>
      <trkpt lat="46.284175" lon="13.790631">
        <ele>1215.7052168448</ele>
        <time>2011-02-05T10:32:24Z</time>
      </trkpt>
      <trkpt lat="46.284137" lon="13.790532">
        <ele>1216.6752050496</ele>
        <time>2011-02-05T10:32:35Z</time>
      </trkpt>
      <trkpt lat="46.284172" lon="13.790375">
        <ele>1218.5951817024</ele>
        <time>2011-02-05T10:32:47Z</time>
      </trkpt>
      <trkpt lat="46.284174" lon="13.790266">
        <ele>1220.035164192</ele>
        <time>2011-02-05T10:32:59Z</time>
      </trkpt>
      <trkpt lat="46.284135" lon="13.790214">
        <ele>1222.435135008</ele>
        <time>2011-02-05T10:33:11Z</time>
      </trkpt>
      <trkpt lat="46.284137" lon="13.790142">
        <ele>1223.4051232128</ele>
        <time>2011-02-05T10:33:25Z</time>
      </trkpt>
      <trkpt lat="46.284023" lon="13.790137">
        <ele>1225.3250998656</ele>
        <time>2011-02-05T10:33:38Z</time>
      </trkpt>
      <trkpt lat="46.284019" lon="13.790131">
        <ele>1227.2450765184</ele>
        <time>2011-02-05T10:33:50Z</time>
      </trkpt>
      <trkpt lat="46.284041" lon="13.790113">
        <ele>1228.2050648448</ele>
        <time>2011-02-05T10:34:01Z</time>
      </trkpt>
      <trkpt lat="46.284089" lon="13.790047">
        <ele>1229.1650531712</ele>
        <time>2011-02-05T10:34:12Z</time>
      </trkpt>
      <trkpt lat="46.284116" lon="13.790012">
        <ele>1230.6050356608</ele>
        <time>2011-02-05T10:34:28Z</time>
      </trkpt>
      <trkpt lat="46.284109" lon="13.789892">
        <ele>1232.535012192</ele>
        <time>2011-02-05T10:34:43Z</time>
      </trkpt>
      <trkpt lat="46.284079" lon="13.789853">
        <ele>1233.9749946816</ele>
        <time>2011-02-05T10:34:58Z</time>
      </trkpt>
      <trkpt lat="46.284077" lon="13.789779">
        <ele>1235.4149771712</ele>
        <time>2011-02-05T10:35:10Z</time>
      </trkpt>
      <trkpt lat="46.283976" lon="13.789727">
        <ele>1236.8549596608</ele>
        <time>2011-02-05T10:35:25Z</time>
      </trkpt>
      <trkpt lat="46.283908" lon="13.789625">
        <ele>1238.3049420288</ele>
        <time>2011-02-05T10:35:38Z</time>
      </trkpt>
      <trkpt lat="46.283895" lon="13.789537">
        <ele>1239.2649303552</ele>
        <time>2011-02-05T10:35:45Z</time>
      </trkpt>
      <trkpt lat="46.283896" lon="13.789460">
        <ele>1239.7449245184</ele>
        <time>2011-02-05T10:35:51Z</time>
      </trkpt>
      <trkpt lat="46.283825" lon="13.789323">
        <ele>1239.7449245184</ele>
        <time>2011-02-05T10:36:03Z</time>
      </trkpt>
      <trkpt lat="46.283791" lon="13.789239">
        <ele>1240.2249186816</ele>
        <time>2011-02-05T10:36:12Z</time>
      </trkpt>
      <trkpt lat="46.283824" lon="13.789136">
        <ele>1241.6649011712</ele>
        <time>2011-02-05T10:36:24Z</time>
      </trkpt>
      <trkpt lat="46.283823" lon="13.788999">
        <ele>1242.6248894976</ele>
        <time>2011-02-05T10:36:39Z</time>
      </trkpt>
      <trkpt lat="46.283810" lon="13.788908">
        <ele>1243.1048836608</ele>
        <time>2011-02-05T10:36:50Z</time>
      </trkpt>
      <trkpt lat="46.283797" lon="13.788760">
        <ele>1244.0648719872</ele>
        <time>2011-02-05T10:37:02Z</time>
      </trkpt>
      <trkpt lat="46.283754" lon="13.788665">
        <ele>1245.0248603136</ele>
        <time>2011-02-05T10:37:16Z</time>
      </trkpt>
      <trkpt lat="46.283708" lon="13.788517">
        <ele>1246.9548368448</ele>
        <time>2011-02-05T10:37:28Z</time>
      </trkpt>
      <trkpt lat="46.283681" lon="13.788444">
        <ele>1247.434831008</ele>
        <time>2011-02-05T10:37:36Z</time>
      </trkpt>
      <trkpt lat="46.283665" lon="13.788330">
        <ele>1249.834801824</ele>
        <time>2011-02-05T10:37:48Z</time>
      </trkpt>
      <trkpt lat="46.283632" lon="13.788267">
        <ele>1250.7947901504</ele>
        <time>2011-02-05T10:38:00Z</time>
      </trkpt>
      <trkpt lat="46.283586" lon="13.788223">
        <ele>1252.7247666816</ele>
        <time>2011-02-05T10:38:16Z</time>
      </trkpt>
      <trkpt lat="46.283561" lon="13.788214">
        <ele>1252.7247666816</ele>
        <time>2011-02-05T10:38:31Z</time>
      </trkpt>
      <trkpt lat="46.283559" lon="13.788217">
        <ele>1248.3948193344</ele>
        <time>2011-02-05T10:38:54Z</time>
      </trkpt>
      <trkpt lat="46.283559" lon="13.788218">
        <ele>1253.2047608448</ele>
        <time>2011-02-05T10:38:54Z</time>
      </trkpt>
      <trkpt lat="46.283558" lon="13.788214">
        <ele>1252.7247666816</ele>
        <time>2011-02-05T10:39:13Z</time>
      </trkpt>
      <trkpt lat="46.283547" lon="13.788204">
        <ele>1252.7247666816</ele>
        <time>2011-02-05T10:39:36Z</time>
      </trkpt>
      <trkpt lat="46.283547" lon="13.788204">
        <ele>1252.7247666816</ele>
        <time>2011-02-05T10:39:56Z</time>
      </trkpt>
      <trkpt lat="46.283539" lon="13.788195">
        <ele>1252.7247666816</ele>
        <time>2011-02-05T10:40:22Z</time>
      </trkpt>
      <trkpt lat="46.283528" lon="13.788180">
        <ele>1252.7247666816</ele>
        <time>2011-02-05T10:40:49Z</time>
      </trkpt>
      <trkpt lat="46.283528" lon="13.788180">
        <ele>1253.2047608448</ele>
        <time>2011-02-05T10:41:16Z</time>
      </trkpt>
      <trkpt lat="46.283518" lon="13.788187">
        <ele>1252.7247666816</ele>
        <time>2011-02-05T10:41:43Z</time>
      </trkpt>
      <trkpt lat="46.283512" lon="13.788186">
        <ele>1252.7247666816</ele>
        <time>2011-02-05T10:42:07Z</time>
      </trkpt>
      <trkpt lat="46.283512" lon="13.788186">
        <ele>1253.2047608448</ele>
        <time>2011-02-05T10:42:30Z</time>
      </trkpt>
      <trkpt lat="46.283512" lon="13.788190">
        <ele>1252.7247666816</ele>
        <time>2011-02-05T10:42:48Z</time>
      </trkpt>
      <trkpt lat="46.283484" lon="13.788155">
        <ele>1254.6447433344</ele>
        <time>2011-02-05T10:43:01Z</time>
      </trkpt>
      <trkpt lat="46.283473" lon="13.788091">
        <ele>1255.1247374976</ele>
        <time>2011-02-05T10:43:12Z</time>
      </trkpt>
      <trkpt lat="46.283444" lon="13.788068">
        <ele>1255.6047316608</ele>
        <time>2011-02-05T10:43:30Z</time>
      </trkpt>
      <trkpt lat="46.283433" lon="13.788061">
        <ele>1255.6047316608</ele>
        <time>2011-02-05T10:43:47Z</time>
      </trkpt>
      <trkpt lat="46.283433" lon="13.788061">
        <ele>1255.6047316608</ele>
        <time>2011-02-05T10:44:13Z</time>
      </trkpt>
      <trkpt lat="46.283404" lon="13.788013">
        <ele>1256.5647199872</ele>
        <time>2011-02-05T10:44:33Z</time>
      </trkpt>
      <trkpt lat="46.283347" lon="13.787983">
        <ele>1257.5247083136</ele>
        <time>2011-02-05T10:44:40Z</time>
      </trkpt>
      <trkpt lat="46.283243" lon="13.787909">
        <ele>1258.0047024768</ele>
        <time>2011-02-05T10:44:51Z</time>
      </trkpt>
      <trkpt lat="46.283240" lon="13.787892">
        <ele>1258.0047024768</ele>
        <time>2011-02-05T10:44:52Z</time>
      </trkpt>
      <trkpt lat="46.283283" lon="13.787785">
        <ele>1258.9646908032</ele>
        <time>2011-02-05T10:45:00Z</time>
      </trkpt>
      <trkpt lat="46.283355" lon="13.787703">
        <ele>1259.9246791296</ele>
        <time>2011-02-05T10:45:04Z</time>
      </trkpt>
      <trkpt lat="46.283326" lon="13.787547">
        <ele>1261.3746614976</ele>
        <time>2011-02-05T10:45:16Z</time>
      </trkpt>
      <trkpt lat="46.283298" lon="13.787473">
        <ele>1261.8546556608</ele>
        <time>2011-02-05T10:45:28Z</time>
      </trkpt>
      <trkpt lat="46.283267" lon="13.787450">
        <ele>1261.8546556608</ele>
        <time>2011-02-05T10:45:43Z</time>
      </trkpt>
      <trkpt lat="46.283256" lon="13.787450">
        <ele>1262.334649824</ele>
        <time>2011-02-05T10:46:01Z</time>
      </trkpt>
      <trkpt lat="46.283254" lon="13.787342">
        <ele>1261.8546556608</ele>
        <time>2011-02-05T10:46:17Z</time>
      </trkpt>
      <trkpt lat="46.283297" lon="13.787242">
        <ele>1263.2946381504</ele>
        <time>2011-02-05T10:46:30Z</time>
      </trkpt>
      <trkpt lat="46.283303" lon="13.787213">
        <ele>1264.2546264768</ele>
        <time>2011-02-05T10:46:45Z</time>
      </trkpt>
      <trkpt lat="46.283288" lon="13.787208">
        <ele>1265.6946089664</ele>
        <time>2011-02-05T10:47:03Z</time>
      </trkpt>
      <trkpt lat="46.283298" lon="13.787111">
        <ele>1269.0645679872</ele>
        <time>2011-02-05T10:47:19Z</time>
      </trkpt>
      <trkpt lat="46.283341" lon="13.787062">
        <ele>1270.5045504768</ele>
        <time>2011-02-05T10:47:34Z</time>
      </trkpt>
      <trkpt lat="46.283374" lon="13.787000">
        <ele>1271.4645388032</ele>
        <time>2011-02-05T10:47:49Z</time>
      </trkpt>
      <trkpt lat="46.283384" lon="13.786903">
        <ele>1273.384515456</ele>
        <time>2011-02-05T10:48:01Z</time>
      </trkpt>
      <trkpt lat="46.283441" lon="13.786778">
        <ele>1275.7944861504</ele>
        <time>2011-02-05T10:48:17Z</time>
      </trkpt>
      <trkpt lat="46.283519" lon="13.786613">
        <ele>1277.7144628032</ele>
        <time>2011-02-05T10:48:29Z</time>
      </trkpt>
      <trkpt lat="46.283556" lon="13.786505">
        <ele>1278.6744511296</ele>
        <time>2011-02-05T10:48:41Z</time>
      </trkpt>
      <trkpt lat="46.283593" lon="13.786343">
        <ele>1281.0744219456</ele>
        <time>2011-02-05T10:48:55Z</time>
      </trkpt>
      <trkpt lat="46.283600" lon="13.786244">
        <ele>1283.0043984768</ele>
        <time>2011-02-05T10:49:10Z</time>
      </trkpt>
      <trkpt lat="46.283638" lon="13.786033">
        <ele>1284.9243751296</ele>
        <time>2011-02-05T10:49:23Z</time>
      </trkpt>
      <trkpt lat="46.283655" lon="13.785946">
        <ele>1285.4043692928</ele>
        <time>2011-02-05T10:49:38Z</time>
      </trkpt>
      <trkpt lat="46.283654" lon="13.785945">
        <ele>1285.4043692928</ele>
        <time>2011-02-05T10:50:05Z</time>
      </trkpt>
      <trkpt lat="46.283677" lon="13.785889">
        <ele>1286.8443517824</ele>
        <time>2011-02-05T10:50:24Z</time>
      </trkpt>
      <trkpt lat="46.283675" lon="13.785897">
        <ele>1289.2543224768</ele>
        <time>2011-02-05T10:50:38Z</time>
      </trkpt>
      <trkpt lat="46.283666" lon="13.785847">
        <ele>1292.6142816192</ele>
        <time>2011-02-05T10:50:54Z</time>
      </trkpt>
      <trkpt lat="46.283662" lon="13.785707">
        <ele>1294.534258272</ele>
        <time>2011-02-05T10:51:07Z</time>
      </trkpt>
      <trkpt lat="46.283681" lon="13.785658">
        <ele>1295.9742407616</ele>
        <time>2011-02-05T10:51:27Z</time>
      </trkpt>
      <trkpt lat="46.283701" lon="13.785530">
        <ele>1298.384211456</ele>
        <time>2011-02-05T10:51:45Z</time>
      </trkpt>
      <trkpt lat="46.283758" lon="13.785381">
        <ele>1299.8241939456</ele>
        <time>2011-02-05T10:51:57Z</time>
      </trkpt>
      <trkpt lat="46.283784" lon="13.785269">
        <ele>1301.2641764352</ele>
        <time>2011-02-05T10:52:11Z</time>
      </trkpt>
      <trkpt lat="46.283777" lon="13.785200">
        <ele>1303.6741471296</ele>
        <time>2011-02-05T10:52:24Z</time>
      </trkpt>
      <trkpt lat="46.283780" lon="13.785177">
        <ele>1304.1541412928</ele>
        <time>2011-02-05T10:52:43Z</time>
      </trkpt>
      <trkpt lat="46.283802" lon="13.785020">
        <ele>1306.0741179456</ele>
        <time>2011-02-05T10:52:58Z</time>
      </trkpt>
      <trkpt lat="46.283762" lon="13.784779">
        <ele>1307.034106272</ele>
        <time>2011-02-05T10:53:10Z</time>
      </trkpt>
      <trkpt lat="46.283744" lon="13.784751">
        <ele>1307.9940945984</ele>
        <time>2011-02-05T10:53:29Z</time>
      </trkpt>
      <trkpt lat="46.283750" lon="13.784763">
        <ele>1307.9940945984</ele>
        <time>2011-02-05T10:54:04Z</time>
      </trkpt>
      <trkpt lat="46.283750" lon="13.784763">
        <ele>1307.5141004352</ele>
        <time>2011-02-05T10:54:38Z</time>
      </trkpt>
      <trkpt lat="46.283732" lon="13.784722">
        <ele>1308.4740887616</ele>
        <time>2011-02-05T10:54:55Z</time>
      </trkpt>
      <trkpt lat="46.283716" lon="13.784608">
        <ele>1309.9140712512</ele>
        <time>2011-02-05T10:55:10Z</time>
      </trkpt>
      <trkpt lat="46.283743" lon="13.784494">
        <ele>1312.3240419456</ele>
        <time>2011-02-05T10:55:24Z</time>
      </trkpt>
      <trkpt lat="46.283764" lon="13.784403">
        <ele>1314.7240127616</ele>
        <time>2011-02-05T10:55:39Z</time>
      </trkpt>
      <trkpt lat="46.283785" lon="13.784300">
        <ele>1316.1639952512</ele>
        <time>2011-02-05T10:55:52Z</time>
      </trkpt>
      <trkpt lat="46.283854" lon="13.784112">
        <ele>1317.1239835776</ele>
        <time>2011-02-05T10:56:06Z</time>
      </trkpt>
      <trkpt lat="46.283865" lon="13.783928">
        <ele>1319.0539601088</ele>
        <time>2011-02-05T10:56:19Z</time>
      </trkpt>
      <trkpt lat="46.283863" lon="13.783819">
        <ele>1320.4939425984</ele>
        <time>2011-02-05T10:56:33Z</time>
      </trkpt>
      <trkpt lat="46.283860" lon="13.783826">
        <ele>1323.3739075776</ele>
        <time>2011-02-05T10:56:39Z</time>
      </trkpt>
      <trkpt lat="46.283860" lon="13.783826">
        <ele>1319.533954272</ele>
        <time>2011-02-05T10:56:41Z</time>
      </trkpt>
      <trkpt lat="46.283804" lon="13.783787">
        <ele>1320.0139484352</ele>
        <time>2011-02-05T10:57:02Z</time>
      </trkpt>
      <trkpt lat="46.283802" lon="13.783673">
        <ele>1322.4139192512</ele>
        <time>2011-02-05T10:57:14Z</time>
      </trkpt>
      <trkpt lat="46.283813" lon="13.783530">
        <ele>1324.333895904</ele>
        <time>2011-02-05T10:57:28Z</time>
      </trkpt>
      <trkpt lat="46.283789" lon="13.783453">
        <ele>1326.7438665984</ele>
        <time>2011-02-05T10:57:40Z</time>
      </trkpt>
      <trkpt lat="46.283716" lon="13.783340">
        <ele>1328.6638432512</ele>
        <time>2011-02-05T10:57:52Z</time>
      </trkpt>
      <trkpt lat="46.283685" lon="13.783224">
        <ele>1328.6638432512</ele>
        <time>2011-02-05T10:58:04Z</time>
      </trkpt>
      <trkpt lat="46.283673" lon="13.783088">
        <ele>1329.1438374144</ele>
        <time>2011-02-05T10:58:21Z</time>
      </trkpt>
      <trkpt lat="46.283648" lon="13.782980">
        <ele>1329.6238315776</ele>
        <time>2011-02-05T10:58:33Z</time>
      </trkpt>
      <trkpt lat="46.283629" lon="13.782881">
        <ele>1330.1038257408</ele>
        <time>2011-02-05T10:58:46Z</time>
      </trkpt>
      <trkpt lat="46.283581" lon="13.782703">
        <ele>1331.5438082304</ele>
        <time>2011-02-05T10:59:01Z</time>
      </trkpt>
      <trkpt lat="46.283534" lon="13.782623">
        <ele>1332.9937905984</ele>
        <time>2011-02-05T10:59:12Z</time>
      </trkpt>
      <trkpt lat="46.283541" lon="13.782489">
        <ele>1333.9537789248</ele>
        <time>2011-02-05T10:59:21Z</time>
      </trkpt>
      <trkpt lat="46.283559" lon="13.782333">
        <ele>1334.433773088</ele>
        <time>2011-02-05T10:59:32Z</time>
      </trkpt>
      <trkpt lat="46.283570" lon="13.782217">
        <ele>1334.433773088</ele>
        <time>2011-02-05T10:59:42Z</time>
      </trkpt>
      <trkpt lat="46.283588" lon="13.782086">
        <ele>1334.433773088</ele>
        <time>2011-02-05T10:59:54Z</time>
      </trkpt>
      <trkpt lat="46.283600" lon="13.781982">
        <ele>1334.433773088</ele>
        <time>2011-02-05T11:00:03Z</time>
      </trkpt>
      <trkpt lat="46.283634" lon="13.781886">
        <ele>1334.9137672512</ele>
        <time>2011-02-05T11:00:13Z</time>
      </trkpt>
      <trkpt lat="46.283662" lon="13.781804">
        <ele>1335.3937614144</ele>
        <time>2011-02-05T11:00:18Z</time>
      </trkpt>
      <trkpt lat="46.283721" lon="13.781685">
        <ele>1335.3937614144</ele>
        <time>2011-02-05T11:00:30Z</time>
      </trkpt>
      <trkpt lat="46.283792" lon="13.781636">
        <ele>1335.8737555776</ele>
        <time>2011-02-05T11:00:38Z</time>
      </trkpt>
      <trkpt lat="46.283902" lon="13.781597">
        <ele>1335.3937614144</ele>
        <time>2011-02-05T11:00:49Z</time>
      </trkpt>
      <trkpt lat="46.284015" lon="13.781587">
        <ele>1335.8737555776</ele>
        <time>2011-02-05T11:00:59Z</time>
      </trkpt>
      <trkpt lat="46.284048" lon="13.781582">
        <ele>1335.8737555776</ele>
        <time>2011-02-05T11:01:01Z</time>
      </trkpt>
      <trkpt lat="46.284073" lon="13.781571">
        <ele>1335.8737555776</ele>
        <time>2011-02-05T11:01:04Z</time>
      </trkpt>
      <trkpt lat="46.284116" lon="13.781568">
        <ele>1336.3537497408</ele>
        <time>2011-02-05T11:01:07Z</time>
      </trkpt>
      <trkpt lat="46.284232" lon="13.781518">
        <ele>1337.7937322304</ele>
        <time>2011-02-05T11:01:19Z</time>
      </trkpt>
      <trkpt lat="46.284334" lon="13.781517">
        <ele>1338.7537205568</ele>
        <time>2011-02-05T11:01:31Z</time>
      </trkpt>
      <trkpt lat="46.284359" lon="13.781473">
        <ele>1339.7137088832</ele>
        <time>2011-02-05T11:01:36Z</time>
      </trkpt>
      <trkpt lat="46.284392" lon="13.781303">
        <ele>1342.1236795776</ele>
        <time>2011-02-05T11:01:50Z</time>
      </trkpt>
      <trkpt lat="46.284440" lon="13.781249">
        <ele>1344.0436562304</ele>
        <time>2011-02-05T11:02:02Z</time>
      </trkpt>
      <trkpt lat="46.284493" lon="13.781078">
        <ele>1345.48363872</ele>
        <time>2011-02-05T11:02:14Z</time>
      </trkpt>
      <trkpt lat="46.284540" lon="13.780993">
        <ele>1346.9236212096</ele>
        <time>2011-02-05T11:02:28Z</time>
      </trkpt>
      <trkpt lat="46.284660" lon="13.780978">
        <ele>1347.8936094144</ele>
        <time>2011-02-05T11:02:41Z</time>
      </trkpt>
      <trkpt lat="46.284726" lon="13.780966">
        <ele>1348.8535977408</ele>
        <time>2011-02-05T11:02:53Z</time>
      </trkpt>
      <trkpt lat="46.284736" lon="13.780974">
        <ele>1348.8535977408</ele>
        <time>2011-02-05T11:02:56Z</time>
      </trkpt>
      <trkpt lat="46.284744" lon="13.781003">
        <ele>1348.8535977408</ele>
        <time>2011-02-05T11:02:59Z</time>
      </trkpt>
      <trkpt lat="46.284785" lon="13.781055">
        <ele>1348.3736035776</ele>
        <time>2011-02-05T11:03:12Z</time>
      </trkpt>
      <trkpt lat="46.284874" lon="13.781010">
        <ele>1349.8135860672</ele>
        <time>2011-02-05T11:03:22Z</time>
      </trkpt>
      <trkpt lat="46.284975" lon="13.780927">
        <ele>1351.2535685568</ele>
        <time>2011-02-05T11:03:35Z</time>
      </trkpt>
      <trkpt lat="46.285001" lon="13.780915">
        <ele>1350.7735743936</ele>
        <time>2011-02-05T11:03:38Z</time>
      </trkpt>
      <trkpt lat="46.285080" lon="13.780832">
        <ele>1353.1735452096</ele>
        <time>2011-02-05T11:03:49Z</time>
      </trkpt>
      <trkpt lat="46.285084" lon="13.780805">
        <ele>1353.1735452096</ele>
        <time>2011-02-05T11:03:50Z</time>
      </trkpt>
      <trkpt lat="46.285172" lon="13.780640">
        <ele>1355.1035217408</ele>
        <time>2011-02-05T11:04:02Z</time>
      </trkpt>
      <trkpt lat="46.285172" lon="13.780640">
        <ele>1355.583515904</ele>
        <time>2011-02-05T11:04:02Z</time>
      </trkpt>
      <trkpt lat="46.285214" lon="13.780453">
        <ele>1357.5034925568</ele>
        <time>2011-02-05T11:04:13Z</time>
      </trkpt>
      <trkpt lat="46.285168" lon="13.780372">
        <ele>1357.98348672</ele>
        <time>2011-02-05T11:04:25Z</time>
      </trkpt>
      <trkpt lat="46.285168" lon="13.780359">
        <ele>1357.5034925568</ele>
        <time>2011-02-05T11:04:25Z</time>
      </trkpt>
      <trkpt lat="46.285216" lon="13.780232">
        <ele>1360.383457536</ele>
        <time>2011-02-05T11:04:40Z</time>
      </trkpt>
      <trkpt lat="46.285247" lon="13.780179">
        <ele>1362.3134340672</ele>
        <time>2011-02-05T11:04:52Z</time>
      </trkpt>
      <trkpt lat="46.285270" lon="13.780071">
        <ele>1364.23341072</ele>
        <time>2011-02-05T11:05:07Z</time>
      </trkpt>
      <trkpt lat="46.285271" lon="13.780063">
        <ele>1364.7134048832</ele>
        <time>2011-02-05T11:05:24Z</time>
      </trkpt>
      <trkpt lat="46.285271" lon="13.780063">
        <ele>1365.1933990464</ele>
        <time>2011-02-05T11:05:45Z</time>
      </trkpt>
      <trkpt lat="46.285271" lon="13.780064">
        <ele>1364.23341072</ele>
        <time>2011-02-05T11:06:12Z</time>
      </trkpt>
      <trkpt lat="46.285272" lon="13.780054">
        <ele>1364.7134048832</ele>
        <time>2011-02-05T11:06:33Z</time>
      </trkpt>
      <trkpt lat="46.285272" lon="13.780054">
        <ele>1364.7134048832</ele>
        <time>2011-02-05T11:06:55Z</time>
      </trkpt>
      <trkpt lat="46.285331" lon="13.779953">
        <ele>1366.1533873728</ele>
        <time>2011-02-05T11:07:10Z</time>
      </trkpt>
      <trkpt lat="46.285384" lon="13.779959">
        <ele>1367.5933698624</ele>
        <time>2011-02-05T11:07:23Z</time>
      </trkpt>
      <trkpt lat="46.285418" lon="13.779899">
        <ele>1368.0733640256</ele>
        <time>2011-02-05T11:07:41Z</time>
      </trkpt>
      <trkpt lat="46.285516" lon="13.779739">
        <ele>1368.5533581888</ele>
        <time>2011-02-05T11:07:53Z</time>
      </trkpt>
      <trkpt lat="46.285550" lon="13.779685">
        <ele>1370.0033405568</ele>
        <time>2011-02-05T11:08:05Z</time>
      </trkpt>
      <trkpt lat="46.285601" lon="13.779612">
        <ele>1370.48333472</ele>
        <time>2011-02-05T11:08:17Z</time>
      </trkpt>
      <trkpt lat="46.285650" lon="13.779553">
        <ele>1372.4033113728</ele>
        <time>2011-02-05T11:08:33Z</time>
      </trkpt>
      <trkpt lat="46.285704" lon="13.779376">
        <ele>1372.883305536</ele>
        <time>2011-02-05T11:08:47Z</time>
      </trkpt>
      <trkpt lat="46.285737" lon="13.779256">
        <ele>1374.8032821888</ele>
        <time>2011-02-05T11:08:59Z</time>
      </trkpt>
      <trkpt lat="46.285719" lon="13.779142">
        <ele>1376.2432646784</ele>
        <time>2011-02-05T11:09:10Z</time>
      </trkpt>
      <trkpt lat="46.285712" lon="13.779014">
        <ele>1377.2132528832</ele>
        <time>2011-02-05T11:09:21Z</time>
      </trkpt>
      <trkpt lat="46.285720" lon="13.778967">
        <ele>1378.6532353728</ele>
        <time>2011-02-05T11:09:32Z</time>
      </trkpt>
      <trkpt lat="46.285729" lon="13.778923">
        <ele>1379.6132236992</ele>
        <time>2011-02-05T11:09:46Z</time>
      </trkpt>
      <trkpt lat="46.285802" lon="13.778733">
        <ele>1380.5732120256</ele>
        <time>2011-02-05T11:10:00Z</time>
      </trkpt>
      <trkpt lat="46.285811" lon="13.778686">
        <ele>1380.5732120256</ele>
        <time>2011-02-05T11:10:17Z</time>
      </trkpt>
      <trkpt lat="46.285773" lon="13.778633">
        <ele>1381.533200352</ele>
        <time>2011-02-05T11:10:31Z</time>
      </trkpt>
      <trkpt lat="46.285728" lon="13.778552">
        <ele>1382.9731828416</ele>
        <time>2011-02-05T11:10:46Z</time>
      </trkpt>
      <trkpt lat="46.285758" lon="13.778400">
        <ele>1385.383153536</ele>
        <time>2011-02-05T11:10:59Z</time>
      </trkpt>
      <trkpt lat="46.285746" lon="13.778334">
        <ele>1386.8231360256</ele>
        <time>2011-02-05T11:11:14Z</time>
      </trkpt>
      <trkpt lat="46.285730" lon="13.778192">
        <ele>1389.2231068416</ele>
        <time>2011-02-05T11:11:28Z</time>
      </trkpt>
      <trkpt lat="46.285755" lon="13.778060">
        <ele>1390.183095168</ele>
        <time>2011-02-05T11:11:40Z</time>
      </trkpt>
      <trkpt lat="46.285754" lon="13.778047">
        <ele>1391.1530833728</ele>
        <time>2011-02-05T11:11:41Z</time>
      </trkpt>
      <trkpt lat="46.285739" lon="13.778016">
        <ele>1392.5930658624</ele>
        <time>2011-02-05T11:11:53Z</time>
      </trkpt>
      <trkpt lat="46.285768" lon="13.777921">
        <ele>1394.033048352</ele>
        <time>2011-02-05T11:12:04Z</time>
      </trkpt>
      <trkpt lat="46.285799" lon="13.777798">
        <ele>1396.433019168</ele>
        <time>2011-02-05T11:12:19Z</time>
      </trkpt>
      <trkpt lat="46.285771" lon="13.777644">
        <ele>1398.8429898624</ele>
        <time>2011-02-05T11:12:31Z</time>
      </trkpt>
      <trkpt lat="46.285809" lon="13.777501">
        <ele>1400.7629665152</ele>
        <time>2011-02-05T11:12:43Z</time>
      </trkpt>
      <trkpt lat="46.285771" lon="13.777411">
        <ele>1402.682943168</ele>
        <time>2011-02-05T11:12:54Z</time>
      </trkpt>
      <trkpt lat="46.285765" lon="13.777374">
        <ele>1403.6429314944</ele>
        <time>2011-02-05T11:13:09Z</time>
      </trkpt>
      <trkpt lat="46.285794" lon="13.777174">
        <ele>1405.5629081472</ele>
        <time>2011-02-05T11:13:24Z</time>
      </trkpt>
      <trkpt lat="46.285804" lon="13.777126">
        <ele>1407.4928846784</ele>
        <time>2011-02-05T11:13:37Z</time>
      </trkpt>
      <trkpt lat="46.285842" lon="13.776978">
        <ele>1408.4528730048</ele>
        <time>2011-02-05T11:13:48Z</time>
      </trkpt>
      <trkpt lat="46.285844" lon="13.776923">
        <ele>1409.8928554944</ele>
        <time>2011-02-05T11:14:03Z</time>
      </trkpt>
      <trkpt lat="46.285916" lon="13.776695">
        <ele>1411.8128321472</ele>
        <time>2011-02-05T11:14:15Z</time>
      </trkpt>
      <trkpt lat="46.285905" lon="13.776598">
        <ele>1412.7728204736</ele>
        <time>2011-02-05T11:14:27Z</time>
      </trkpt>
      <trkpt lat="46.285907" lon="13.776546">
        <ele>1414.2228028416</ele>
        <time>2011-02-05T11:14:39Z</time>
      </trkpt>
      <trkpt lat="46.285909" lon="13.776439">
        <ele>1415.6627853312</ele>
        <time>2011-02-05T11:14:53Z</time>
      </trkpt>
      <trkpt lat="46.285831" lon="13.776462">
        <ele>1417.1027678208</ele>
        <time>2011-02-05T11:15:05Z</time>
      </trkpt>
      <trkpt lat="46.285673" lon="13.776526">
        <ele>1418.5427503104</ele>
        <time>2011-02-05T11:15:20Z</time>
      </trkpt>
      <trkpt lat="46.285590" lon="13.776554">
        <ele>1419.9827328</ele>
        <time>2011-02-05T11:15:36Z</time>
      </trkpt>
      <trkpt lat="46.285509" lon="13.776566">
        <ele>1420.4727268416</ele>
        <time>2011-02-05T11:15:51Z</time>
      </trkpt>
      <trkpt lat="46.285474" lon="13.776548">
        <ele>1422.3927034944</ele>
        <time>2011-02-05T11:16:03Z</time>
      </trkpt>
      <trkpt lat="46.285480" lon="13.776448">
        <ele>1423.3526918208</ele>
        <time>2011-02-05T11:16:12Z</time>
      </trkpt>
      <trkpt lat="46.285387" lon="13.776379">
        <ele>1424.3126801472</ele>
        <time>2011-02-05T11:16:25Z</time>
      </trkpt>
      <trkpt lat="46.285300" lon="13.776358">
        <ele>1424.7926743104</ele>
        <time>2011-02-05T11:16:35Z</time>
      </trkpt>
      <trkpt lat="46.285265" lon="13.776341">
        <ele>1425.2726684736</ele>
        <time>2011-02-05T11:16:50Z</time>
      </trkpt>
      <trkpt lat="46.285238" lon="13.776317">
        <ele>1426.7126509632</ele>
        <time>2011-02-05T11:17:06Z</time>
      </trkpt>
      <trkpt lat="46.285159" lon="13.776258">
        <ele>1428.6426274944</ele>
        <time>2011-02-05T11:17:20Z</time>
      </trkpt>
      <trkpt lat="46.285153" lon="13.776178">
        <ele>1429.1226216576</ele>
        <time>2011-02-05T11:17:29Z</time>
      </trkpt>
      <trkpt lat="46.285079" lon="13.776114">
        <ele>1430.082609984</ele>
        <time>2011-02-05T11:17:42Z</time>
      </trkpt>
      <trkpt lat="46.285014" lon="13.776094">
        <ele>1431.5225924736</ele>
        <time>2011-02-05T11:17:52Z</time>
      </trkpt>
      <trkpt lat="46.284960" lon="13.776036">
        <ele>1432.9625749632</ele>
        <time>2011-02-05T11:18:03Z</time>
      </trkpt>
      <trkpt lat="46.284954" lon="13.776014">
        <ele>1433.9225632896</ele>
        <time>2011-02-05T11:18:07Z</time>
      </trkpt>
      <trkpt lat="46.284897" lon="13.776007">
        <ele>1433.9225632896</ele>
        <time>2011-02-05T11:18:19Z</time>
      </trkpt>
      <trkpt lat="46.284878" lon="13.776003">
        <ele>1434.4025574528</ele>
        <time>2011-02-05T11:18:37Z</time>
      </trkpt>
      <trkpt lat="46.284797" lon="13.776009">
        <ele>1436.332533984</ele>
        <time>2011-02-05T11:18:53Z</time>
      </trkpt>
      <trkpt lat="46.284758" lon="13.775998">
        <ele>1437.2925223104</ele>
        <time>2011-02-05T11:19:05Z</time>
      </trkpt>
      <trkpt lat="46.284749" lon="13.775976">
        <ele>1437.7725164736</ele>
        <time>2011-02-05T11:19:17Z</time>
      </trkpt>
      <trkpt lat="46.284754" lon="13.775892">
        <ele>1438.2525106368</ele>
        <time>2011-02-05T11:19:30Z</time>
      </trkpt>
      <trkpt lat="46.284785" lon="13.775832">
        <ele>1440.1724872896</ele>
        <time>2011-02-05T11:19:43Z</time>
      </trkpt>
      <trkpt lat="46.284846" lon="13.775873">
        <ele>1442.0924639424</ele>
        <time>2011-02-05T11:19:57Z</time>
      </trkpt>
      <trkpt lat="46.284918" lon="13.775942">
        <ele>1443.5424463104</ele>
        <time>2011-02-05T11:20:10Z</time>
      </trkpt>
      <trkpt lat="46.285000" lon="13.776006">
        <ele>1444.0224404736</ele>
        <time>2011-02-05T11:20:22Z</time>
      </trkpt>
      <trkpt lat="46.285075" lon="13.776029">
        <ele>1444.9824288</ele>
        <time>2011-02-05T11:20:36Z</time>
      </trkpt>
      <trkpt lat="46.285075" lon="13.776029">
        <ele>1444.9824288</ele>
        <time>2011-02-05T11:20:56Z</time>
      </trkpt>
      <trkpt lat="46.285081" lon="13.776024">
        <ele>1444.9824288</ele>
        <time>2011-02-05T11:21:19Z</time>
      </trkpt>
      <trkpt lat="46.285124" lon="13.776022">
        <ele>1444.9824288</ele>
        <time>2011-02-05T11:21:23Z</time>
      </trkpt>
      <trkpt lat="46.285225" lon="13.776010">
        <ele>1446.9024054528</ele>
        <time>2011-02-05T11:21:35Z</time>
      </trkpt>
      <trkpt lat="46.285355" lon="13.775930">
        <ele>1447.8623937792</ele>
        <time>2011-02-05T11:21:50Z</time>
      </trkpt>
      <trkpt lat="46.285406" lon="13.775899">
        <ele>1448.8223821056</ele>
        <time>2011-02-05T11:21:57Z</time>
      </trkpt>
      <trkpt lat="46.285461" lon="13.775884">
        <ele>1449.3023762688</ele>
        <time>2011-02-05T11:22:09Z</time>
      </trkpt>
      <trkpt lat="46.285520" lon="13.775844">
        <ele>1450.7523586368</ele>
        <time>2011-02-05T11:22:18Z</time>
      </trkpt>
      <trkpt lat="46.285547" lon="13.775669">
        <ele>1452.6723352896</ele>
        <time>2011-02-05T11:22:33Z</time>
      </trkpt>
      <trkpt lat="46.285464" lon="13.775686">
        <ele>1454.1123177792</ele>
        <time>2011-02-05T11:22:44Z</time>
      </trkpt>
      <trkpt lat="46.285366" lon="13.775712">
        <ele>1454.5923119424</ele>
        <time>2011-02-05T11:22:57Z</time>
      </trkpt>
      <trkpt lat="46.285288" lon="13.775690">
        <ele>1456.5122885952</ele>
        <time>2011-02-05T11:23:11Z</time>
      </trkpt>
      <trkpt lat="46.285210" lon="13.775670">
        <ele>1457.9622709632</ele>
        <time>2011-02-05T11:23:22Z</time>
      </trkpt>
      <trkpt lat="46.285171" lon="13.775694">
        <ele>1459.4022534528</ele>
        <time>2011-02-05T11:23:34Z</time>
      </trkpt>
      <trkpt lat="46.285159" lon="13.775691">
        <ele>1459.4022534528</ele>
        <time>2011-02-05T11:23:58Z</time>
      </trkpt>
      <trkpt lat="46.285168" lon="13.775627">
        <ele>1459.882247616</ele>
        <time>2011-02-05T11:24:14Z</time>
      </trkpt>
      <trkpt lat="46.285191" lon="13.775579">
        <ele>1461.3222301056</ele>
        <time>2011-02-05T11:24:28Z</time>
      </trkpt>
      <trkpt lat="46.285260" lon="13.775588">
        <ele>1462.7622125952</ele>
        <time>2011-02-05T11:24:44Z</time>
      </trkpt>
      <trkpt lat="46.285355" lon="13.775524">
        <ele>1464.2121949632</ele>
        <time>2011-02-05T11:24:56Z</time>
      </trkpt>
      <trkpt lat="46.285426" lon="13.775398">
        <ele>1465.1721832896</ele>
        <time>2011-02-05T11:25:10Z</time>
      </trkpt>
      <trkpt lat="46.285481" lon="13.775312">
        <ele>1465.6521774528</ele>
        <time>2011-02-05T11:25:22Z</time>
      </trkpt>
      <trkpt lat="46.285539" lon="13.775257">
        <ele>1467.5721541056</ele>
        <time>2011-02-05T11:25:34Z</time>
      </trkpt>
      <trkpt lat="46.285570" lon="13.775161">
        <ele>1468.532142432</ele>
        <time>2011-02-05T11:25:46Z</time>
      </trkpt>
      <trkpt lat="46.285575" lon="13.775113">
        <ele>1469.4921307584</ele>
        <time>2011-02-05T11:26:01Z</time>
      </trkpt>
      <trkpt lat="46.285580" lon="13.775059">
        <ele>1469.4921307584</ele>
        <time>2011-02-05T11:26:08Z</time>
      </trkpt>
      <trkpt lat="46.285575" lon="13.774898">
        <ele>1470.932113248</ele>
        <time>2011-02-05T11:26:24Z</time>
      </trkpt>
      <trkpt lat="46.285578" lon="13.774862">
        <ele>1472.382095616</ele>
        <time>2011-02-05T11:26:27Z</time>
      </trkpt>
      <trkpt lat="46.285588" lon="13.774711">
        <ele>1472.8620897792</ele>
        <time>2011-02-05T11:26:40Z</time>
      </trkpt>
      <trkpt lat="46.285583" lon="13.774655">
        <ele>1473.3420839424</ele>
        <time>2011-02-05T11:26:46Z</time>
      </trkpt>
      <trkpt lat="46.285587" lon="13.774556">
        <ele>1474.3020722688</ele>
        <time>2011-02-05T11:26:56Z</time>
      </trkpt>
      <trkpt lat="46.285567" lon="13.774451">
        <ele>1475.2620605952</ele>
        <time>2011-02-05T11:27:07Z</time>
      </trkpt>
      <trkpt lat="46.285575" lon="13.774324">
        <ele>1477.182037248</ele>
        <time>2011-02-05T11:27:19Z</time>
      </trkpt>
      <trkpt lat="46.285610" lon="13.774220">
        <ele>1479.1120137792</ele>
        <time>2011-02-05T11:27:34Z</time>
      </trkpt>
      <trkpt lat="46.285627" lon="13.774125">
        <ele>1479.5920079424</ele>
        <time>2011-02-05T11:27:49Z</time>
      </trkpt>
      <trkpt lat="46.285629" lon="13.774117">
        <ele>1479.5920079424</ele>
        <time>2011-02-05T11:28:12Z</time>
      </trkpt>
      <trkpt lat="46.285575" lon="13.774072">
        <ele>1481.031990432</ele>
        <time>2011-02-05T11:28:32Z</time>
      </trkpt>
      <trkpt lat="46.285483" lon="13.774004">
        <ele>1481.5119845952</ele>
        <time>2011-02-05T11:28:43Z</time>
      </trkpt>
      <trkpt lat="46.285397" lon="13.773986">
        <ele>1482.4719729216</ele>
        <time>2011-02-05T11:28:58Z</time>
      </trkpt>
      <trkpt lat="46.285377" lon="13.773958">
        <ele>1482.9519670848</ele>
        <time>2011-02-05T11:29:14Z</time>
      </trkpt>
      <trkpt lat="46.285328" lon="13.773876">
        <ele>1485.831932064</ele>
        <time>2011-02-05T11:29:25Z</time>
      </trkpt>
      <trkpt lat="46.285282" lon="13.773756">
        <ele>1485.831932064</ele>
        <time>2011-02-05T11:29:37Z</time>
      </trkpt>
      <trkpt lat="46.285207" lon="13.773713">
        <ele>1486.3219261056</ele>
        <time>2011-02-05T11:29:49Z</time>
      </trkpt>
      <trkpt lat="46.285139" lon="13.773752">
        <ele>1486.8019202688</ele>
        <time>2011-02-05T11:30:03Z</time>
      </trkpt>
      <trkpt lat="46.285112" lon="13.773793">
        <ele>1488.2419027584</ele>
        <time>2011-02-05T11:30:12Z</time>
      </trkpt>
      <trkpt lat="46.285036" lon="13.773944">
        <ele>1488.7218969216</ele>
        <time>2011-02-05T11:30:24Z</time>
      </trkpt>
      <trkpt lat="46.284997" lon="13.774097">
        <ele>1489.2018910848</ele>
        <time>2011-02-05T11:30:39Z</time>
      </trkpt>
      <trkpt lat="46.285017" lon="13.774224">
        <ele>1491.6018619008</ele>
        <time>2011-02-05T11:30:50Z</time>
      </trkpt>
      <trkpt lat="46.285010" lon="13.774288">
        <ele>1491.6018619008</ele>
        <time>2011-02-05T11:31:05Z</time>
      </trkpt>
      <trkpt lat="46.284991" lon="13.774263">
        <ele>1492.081856064</ele>
        <time>2011-02-05T11:31:21Z</time>
      </trkpt>
      <trkpt lat="46.284919" lon="13.774205">
        <ele>1495.4518150848</ele>
        <time>2011-02-05T11:31:35Z</time>
      </trkpt>
      <trkpt lat="46.284922" lon="13.774187">
        <ele>1496.4118034112</ele>
        <time>2011-02-05T11:31:49Z</time>
      </trkpt>
      <trkpt lat="46.284922" lon="13.774187">
        <ele>1496.4118034112</ele>
        <time>2011-02-05T11:32:15Z</time>
      </trkpt>
      <trkpt lat="46.284922" lon="13.774187">
        <ele>1495.931809248</ele>
        <time>2011-02-05T11:32:34Z</time>
      </trkpt>
      <trkpt lat="46.284912" lon="13.774148">
        <ele>1497.3717917376</ele>
        <time>2011-02-05T11:32:53Z</time>
      </trkpt>
      <trkpt lat="46.284911" lon="13.774140">
        <ele>1496.8917975744</ele>
        <time>2011-02-05T11:32:54Z</time>
      </trkpt>
      <trkpt lat="46.284895" lon="13.774089">
        <ele>1497.3717917376</ele>
        <time>2011-02-05T11:32:58Z</time>
      </trkpt>
      <trkpt lat="46.284910" lon="13.773993">
        <ele>1497.8517859008</ele>
        <time>2011-02-05T11:33:08Z</time>
      </trkpt>
      <trkpt lat="46.284911" lon="13.773889">
        <ele>1497.8517859008</ele>
        <time>2011-02-05T11:33:20Z</time>
      </trkpt>
      <trkpt lat="46.284923" lon="13.773802">
        <ele>1500.2517567168</ele>
        <time>2011-02-05T11:33:32Z</time>
      </trkpt>
      <trkpt lat="46.284919" lon="13.773766">
        <ele>1500.7417507584</ele>
        <time>2011-02-05T11:33:45Z</time>
      </trkpt>
      <trkpt lat="46.284951" lon="13.773665">
        <ele>1501.7017390848</ele>
        <time>2011-02-05T11:33:59Z</time>
      </trkpt>
      <trkpt lat="46.284965" lon="13.773597">
        <ele>1505.5416923904</ele>
        <time>2011-02-05T11:34:07Z</time>
      </trkpt>
      <trkpt lat="46.284946" lon="13.773448">
        <ele>1507.4616690432</ele>
        <time>2011-02-05T11:34:19Z</time>
      </trkpt>
      <trkpt lat="46.284936" lon="13.773390">
        <ele>1506.98167488</ele>
        <time>2011-02-05T11:34:29Z</time>
      </trkpt>
      <trkpt lat="46.284929" lon="13.773382">
        <ele>1507.9516630848</ele>
        <time>2011-02-05T11:34:42Z</time>
      </trkpt>
      <trkpt lat="46.284897" lon="13.773370">
        <ele>1511.3116222272</ele>
        <time>2011-02-05T11:34:54Z</time>
      </trkpt>
      <trkpt lat="46.284867" lon="13.773363">
        <ele>1512.7516047168</ele>
        <time>2011-02-05T11:35:09Z</time>
      </trkpt>
      <trkpt lat="46.284827" lon="13.773344">
        <ele>1514.6715813696</ele>
        <time>2011-02-05T11:35:27Z</time>
      </trkpt>
      <trkpt lat="46.284799" lon="13.773319">
        <ele>1515.1615754112</ele>
        <time>2011-02-05T11:35:40Z</time>
      </trkpt>
      <trkpt lat="46.284753" lon="13.773246">
        <ele>1517.5615462272</ele>
        <time>2011-02-05T11:35:52Z</time>
      </trkpt>
      <trkpt lat="46.284680" lon="13.773143">
        <ele>1518.5215345536</ele>
        <time>2011-02-05T11:36:05Z</time>
      </trkpt>
      <trkpt lat="46.284601" lon="13.773135">
        <ele>1518.5215345536</ele>
        <time>2011-02-05T11:36:14Z</time>
      </trkpt>
      <trkpt lat="46.284568" lon="13.773174">
        <ele>1520.4415112064</ele>
        <time>2011-02-05T11:36:18Z</time>
      </trkpt>
      <trkpt lat="46.284532" lon="13.773203">
        <ele>1519.48152288</ele>
        <time>2011-02-05T11:36:22Z</time>
      </trkpt>
      <trkpt lat="46.284499" lon="13.773227">
        <ele>1515.1615754112</ele>
        <time>2011-02-05T11:36:34Z</time>
      </trkpt>
      <trkpt lat="46.284502" lon="13.773226">
        <ele>1520.4415112064</ele>
        <time>2011-02-05T11:36:34Z</time>
      </trkpt>
      <trkpt lat="46.284502" lon="13.773226">
        <ele>1519.48152288</ele>
        <time>2011-02-05T11:36:36Z</time>
      </trkpt>
      <trkpt lat="46.284502" lon="13.773226">
        <ele>1522.8514819008</ele>
        <time>2011-02-05T11:36:40Z</time>
      </trkpt>
      <trkpt lat="46.284502" lon="13.773226">
        <ele>1519.48152288</ele>
        <time>2011-02-05T11:36:41Z</time>
      </trkpt>
      <trkpt lat="46.284502" lon="13.773226">
        <ele>1518.5215345536</ele>
        <time>2011-02-05T11:36:44Z</time>
      </trkpt>
      <trkpt lat="46.284503" lon="13.773228">
        <ele>1518.5215345536</ele>
        <time>2011-02-05T11:37:04Z</time>
      </trkpt>
      <trkpt lat="46.284503" lon="13.773228">
        <ele>1521.4014995328</ele>
        <time>2011-02-05T11:37:16Z</time>
      </trkpt>
    </trkseg>
  </trk>
</gpx>
